Time,TemperatureF,DewpointF,PressureIn,WindDirection,WindDirectionDegrees,WindSpeedMPH,WindSpeedGustMPH,Humidity,HourlyPrecipIn,Conditions,Clouds,dailyrainin,SoftwareType,DateUTC
2013-07-28 00:01:00,63.7,60.7,29.95,ESE,119,0.0,1.0,90,0.00,,,0.00,Wunderground v.1.15,2013-07-28 04:01:00,
2013-07-28 00:02:00,63.6,60.6,29.95,SW,219,0.0,1.0,90,0.00,,,0.00,Wunderground v.1.15,2013-07-28 04:02:00,
2013-07-28 00:03:00,63.6,60.9,29.94,SSW,205,0.0,1.0,91,0.00,,,0.00,Wunderground v.1.15,2013-07-28 04:03:00,
2013-07-28 00:06:00,63.5,60.8,29.95,SSW,208,0.0,2.0,91,0.00,,,0.00,Wunderground v.1.15,2013-07-28 04:06:00,
2013-07-28 00:07:00,63.4,60.7,29.95,ESE,109,0.0,2.0,91,0.00,,,0.00,Wunderground v.1.15,2013-07-28 04:07:00,
2013-07-28 00:08:00,63.4,60.7,29.95,SSE,153,0.0,2.0,91,0.00,,,0.00,Wunderground v.1.15,2013-07-28 04:08:00,
2013-07-28 00:09:00,63.4,60.7,29.95,SE,140,0.0,2.0,91,0.00,,,0.00,Wunderground v.1.15,2013-07-28 04:09:00,
2013-07-28 00:11:00,63.3,60.6,29.95,NE,43,1.0,1.0,91,0.00,,,0.00,Wunderground v.1.15,2013-07-28 04:11:00,
2013-07-28 00:12:00,63.3,60.6,29.95,NE,43,0.0,1.0,91,0.00,,,0.00,Wunderground v.1.15,2013-07-28 04:12:00,
2013-07-28 00:14:00,63.2,60.5,29.95,SSE,156,0.0,1.0,91,0.00,,,0.00,Wunderground v.1.15,2013-07-28 04:14:00,
2013-07-28 00:15:00,63.2,60.5,29.95,SSE,156,0.0,1.0,91,0.00,,,0.00,Wunderground v.1.15,2013-07-28 04:15:00,
2013-07-28 00:17:00,63.1,60.7,29.95,WNW,288,0.0,1.0,92,0.00,,,0.00,Wunderground v.1.15,2013-07-28 04:17:00,
2013-07-28 00:18:00,63.1,60.7,29.95,WNW,289,0.0,1.0,92,0.00,,,0.00,Wunderground v.1.15,2013-07-28 04:18:00,
2013-07-28 00:22:00,62.9,60.5,29.94,NE,36,0.0,1.0,92,0.00,,,0.00,Wunderground v.1.15,2013-07-28 04:22:00,
2013-07-28 00:23:00,62.8,60.4,29.94,NW,311,0.0,1.0,92,0.00,,,0.00,Wunderground v.1.15,2013-07-28 04:23:00,
2013-07-28 00:26:00,62.7,60.3,29.94,SSW,211,0.0,1.0,92,0.00,,,0.00,Wunderground v.1.15,2013-07-28 04:26:00,
2013-07-28 00:29:00,62.6,60.5,29.94,West,275,2.0,2.0,93,0.00,,,0.00,Wunderground v.1.15,2013-07-28 04:29:00,
2013-07-28 00:31:00,62.5,60.4,29.94,WNW,300,0.0,2.0,93,0.00,,,0.00,Wunderground v.1.15,2013-07-28 04:31:00,
2013-07-28 00:32:00,62.5,60.4,29.94,WNW,286,1.0,2.0,93,0.00,,,0.00,Wunderground v.1.15,2013-07-28 04:32:00,
2013-07-28 00:34:00,62.4,60.3,29.94,NNE,13,1.0,2.0,93,0.00,,,0.00,Wunderground v.1.15,2013-07-28 04:34:00,
2013-07-28 00:35:00,62.3,60.2,29.94,North,11,0.0,2.0,93,0.00,,,0.00,Wunderground v.1.15,2013-07-28 04:35:00,
2013-07-28 00:38:00,62.3,60.2,29.94,WNW,302,0.0,3.0,93,0.00,,,0.00,Wunderground v.1.15,2013-07-28 04:38:00,
2013-07-28 00:40:00,62.3,60.2,29.94,West,273,0.0,1.0,93,0.00,,,0.00,Wunderground v.1.15,2013-07-28 04:40:00,
2013-07-28 00:42:00,62.2,60.2,29.94,West,273,0.0,1.0,93,0.00,,,0.00,Wunderground v.1.15,2013-07-28 04:42:00,
2013-07-28 00:44:00,62.2,60.2,29.94,NW,321,0.0,1.0,93,0.00,,,0.00,Wunderground v.1.15,2013-07-28 04:44:00,
2013-07-28 00:45:00,62.2,60.2,29.94,NW,321,0.0,1.0,93,0.00,,,0.00,Wunderground v.1.15,2013-07-28 04:45:00,
2013-07-28 00:46:00,62.1,60.1,29.94,NW,321,0.0,1.0,93,0.00,,,0.00,Wunderground v.1.15,2013-07-28 04:46:00,
2013-07-28 00:50:00,61.8,59.8,29.94,NW,321,0.0,0.0,93,0.00,,,0.00,Wunderground v.1.15,2013-07-28 04:50:00,
2013-07-28 00:51:00,61.8,59.8,29.94,NW,321,0.0,0.0,93,0.00,,,0.00,Wunderground v.1.15,2013-07-28 04:51:00,
2013-07-28 00:53:00,61.7,59.7,29.94,NW,321,0.0,0.0,93,0.00,,,0.00,Wunderground v.1.15,2013-07-28 04:53:00,
2013-07-28 00:54:00,61.6,59.6,29.94,NW,321,0.0,0.0,93,0.00,,,0.00,Wunderground v.1.15,2013-07-28 04:54:00,
2013-07-28 00:56:00,61.5,59.8,29.94,NW,321,0.0,0.0,94,0.00,,,0.00,Wunderground v.1.15,2013-07-28 04:56:00,
2013-07-28 00:59:00,61.4,59.7,29.94,NW,321,0.0,0.0,94,0.00,,,0.00,Wunderground v.1.15,2013-07-28 04:59:00,
2013-07-28 01:00:00,61.4,59.7,29.94,NW,321,0.0,0.0,94,0.00,,,0.00,Wunderground v.1.15,2013-07-28 05:00:00,
2013-07-28 01:01:00,61.3,59.6,29.94,NW,321,0.0,0.0,94,0.00,,,0.00,Wunderground v.1.15,2013-07-28 05:01:00,
2013-07-28 01:02:00,61.3,59.6,29.94,NW,321,0.0,0.0,94,0.00,,,0.00,Wunderground v.1.15,2013-07-28 05:02:00,
2013-07-28 01:05:00,61.3,59.9,29.94,NW,321,0.0,0.0,95,0.00,,,0.00,Wunderground v.1.15,2013-07-28 05:05:00,
2013-07-28 01:07:00,61.1,59.4,29.94,NW,321,0.0,0.0,94,0.00,,,0.00,Wunderground v.1.15,2013-07-28 05:07:00,
2013-07-28 01:08:00,61.1,59.4,29.94,NW,321,0.0,0.0,94,0.00,,,0.00,Wunderground v.1.15,2013-07-28 05:08:00,
2013-07-28 01:10:00,61.0,59.6,29.94,NW,321,0.0,0.0,95,0.00,,,0.00,Wunderground v.1.15,2013-07-28 05:10:00,
2013-07-28 01:13:00,61.0,59.6,29.94,NW,321,0.0,0.0,95,0.00,,,0.00,Wunderground v.1.15,2013-07-28 05:13:00,
2013-07-28 01:15:00,60.9,59.5,29.94,NW,321,0.0,0.0,95,0.00,,,0.00,Wunderground v.1.15,2013-07-28 05:15:00,
2013-07-28 01:16:00,60.8,59.4,29.93,NW,321,0.0,0.0,95,0.00,,,0.00,Wunderground v.1.15,2013-07-28 05:16:00,
2013-07-28 01:18:00,60.7,59.3,29.93,NW,321,0.0,0.0,95,0.00,,,0.00,Wunderground v.1.15,2013-07-28 05:18:00,
2013-07-28 01:20:00,60.6,59.2,29.93,NW,321,0.0,0.0,95,0.00,,,0.00,Wunderground v.1.15,2013-07-28 05:20:00,
2013-07-28 01:22:00,60.5,59.1,29.93,NW,321,0.0,0.0,95,0.00,,,0.00,Wunderground v.1.15,2013-07-28 05:22:00,
2013-07-28 01:25:00,60.5,59.1,29.93,NW,321,0.0,0.0,95,0.00,,,0.00,Wunderground v.1.15,2013-07-28 05:25:00,
2013-07-28 01:26:00,60.4,59.0,29.93,NW,321,0.0,0.0,95,0.00,,,0.00,Wunderground v.1.15,2013-07-28 05:26:00,
2013-07-28 01:29:00,60.3,58.9,29.93,NW,321,0.0,0.0,95,0.00,,,0.00,Wunderground v.1.15,2013-07-28 05:29:00,
2013-07-28 01:30:00,60.3,58.9,29.93,NW,321,0.0,0.0,95,0.00,,,0.00,Wunderground v.1.15,2013-07-28 05:30:00,
2013-07-28 01:34:00,60.1,59.0,29.93,NW,321,0.0,0.0,96,0.00,,,0.00,Wunderground v.1.15,2013-07-28 05:34:00,
2013-07-28 01:36:00,60.2,59.1,29.94,ENE,67,1.0,1.0,96,0.00,,,0.00,Wunderground v.1.15,2013-07-28 05:36:00,
2013-07-28 01:39:00,60.2,59.1,29.94,ENE,67,0.0,1.0,96,0.00,,,0.00,Wunderground v.1.15,2013-07-28 05:39:00,
2013-07-28 01:41:00,60.3,59.2,29.94,ENE,67,0.0,0.0,96,0.00,,,0.00,Wunderground v.1.15,2013-07-28 05:41:00,
2013-07-28 01:43:00,60.2,59.1,29.94,ENE,67,0.0,0.0,96,0.00,,,0.00,Wunderground v.1.15,2013-07-28 05:43:00,
2013-07-28 01:44:00,60.2,59.1,29.94,ENE,67,0.0,0.0,96,0.00,,,0.00,Wunderground v.1.15,2013-07-28 05:44:00,
2013-07-28 01:45:00,60.3,59.2,29.94,ENE,67,0.0,0.0,96,0.00,,,0.00,Wunderground v.1.15,2013-07-28 05:45:00,
2013-07-28 01:51:00,60.3,59.2,29.94,ENE,67,0.0,0.0,96,0.00,,,0.00,Wunderground v.1.15,2013-07-28 05:51:00,
2013-07-28 01:52:00,60.2,59.1,29.94,ENE,67,0.0,0.0,96,0.00,,,0.00,Wunderground v.1.15,2013-07-28 05:52:00,
2013-07-28 01:53:00,60.2,59.1,29.94,ENE,67,0.0,0.0,96,0.00,,,0.00,Wunderground v.1.15,2013-07-28 05:53:00,
2013-07-28 01:55:00,60.2,59.1,29.94,ENE,67,0.0,0.0,96,0.00,,,0.00,Wunderground v.1.15,2013-07-28 05:55:00,
2013-07-28 01:58:00,60.2,59.1,29.94,ENE,67,1.0,1.0,96,0.00,,,0.00,Wunderground v.1.15,2013-07-28 05:58:00,
2013-07-28 02:00:00,60.2,59.1,29.93,ENE,67,0.0,0.0,96,0.00,,,0.00,Wunderground v.1.15,2013-07-28 06:00:00,
2013-07-28 02:01:00,60.1,59.0,29.93,ENE,67,0.0,0.0,96,0.00,,,0.00,Wunderground v.1.15,2013-07-28 06:01:00,
2013-07-28 02:02:00,60.1,59.0,29.93,ENE,67,0.0,0.0,96,0.00,,,0.00,Wunderground v.1.15,2013-07-28 06:02:00,
2013-07-28 02:03:00,60.1,59.0,29.94,ENE,67,0.0,0.0,96,0.00,,,0.00,Wunderground v.1.15,2013-07-28 06:03:00,
2013-07-28 02:05:00,60.1,59.0,29.94,ENE,67,0.0,0.0,96,0.00,,,0.00,Wunderground v.1.15,2013-07-28 06:05:00,
2013-07-28 02:06:00,60.1,59.2,29.94,ENE,67,2.0,2.0,97,0.00,,,0.00,Wunderground v.1.15,2013-07-28 06:06:00,
2013-07-28 02:07:00,60.2,59.3,29.94,ENE,67,2.0,2.0,97,0.00,,,0.00,Wunderground v.1.15,2013-07-28 06:07:00,
2013-07-28 02:08:00,60.2,59.3,29.94,ENE,67,0.0,2.0,97,0.00,,,0.00,Wunderground v.1.15,2013-07-28 06:08:00,
2013-07-28 02:10:00,60.2,59.3,29.94,ENE,67,0.0,0.0,97,0.00,,,0.00,Wunderground v.1.15,2013-07-28 06:10:00,
2013-07-28 02:11:00,60.2,59.3,29.94,ENE,67,0.0,0.0,97,0.00,,,0.00,Wunderground v.1.15,2013-07-28 06:11:00,
2013-07-28 02:12:00,60.2,59.1,29.94,ENE,67,0.0,0.0,96,0.00,,,0.00,Wunderground v.1.15,2013-07-28 06:12:00,
2013-07-28 02:13:00,60.1,59.0,29.94,ENE,67,0.0,0.0,96,0.00,,,0.00,Wunderground v.1.15,2013-07-28 06:13:00,
2013-07-28 02:16:00,60.2,59.3,29.94,ENE,67,0.0,1.0,97,0.00,,,0.00,Wunderground v.1.15,2013-07-28 06:16:00,
2013-07-28 02:17:00,60.2,59.3,29.94,ENE,67,0.0,1.0,97,0.00,,,0.00,Wunderground v.1.15,2013-07-28 06:17:00,
2013-07-28 02:19:00,60.1,59.0,29.94,ENE,67,0.0,1.0,96,0.00,,,0.00,Wunderground v.1.15,2013-07-28 06:19:00,
2013-07-28 02:21:00,60.1,59.0,29.94,ENE,67,0.0,0.0,96,0.00,,,0.00,Wunderground v.1.15,2013-07-28 06:21:00,
2013-07-28 02:22:00,60.1,59.0,29.94,ENE,67,0.0,1.0,96,0.00,,,0.00,Wunderground v.1.15,2013-07-28 06:22:00,
2013-07-28 02:23:00,60.0,58.9,29.94,ENE,67,1.0,1.0,96,0.00,,,0.00,Wunderground v.1.15,2013-07-28 06:23:00,
2013-07-28 02:24:00,60.0,58.9,29.94,ENE,67,0.0,1.0,96,0.00,,,0.00,Wunderground v.1.15,2013-07-28 06:24:00,
2013-07-28 02:27:00,59.8,58.7,29.94,ENE,67,0.0,1.0,96,0.00,,,0.00,Wunderground v.1.15,2013-07-28 06:27:00,
2013-07-28 02:28:00,59.8,58.7,29.94,ENE,67,0.0,1.0,96,0.00,,,0.00,Wunderground v.1.15,2013-07-28 06:28:00,
2013-07-28 02:29:00,59.8,58.7,29.94,ENE,67,0.0,1.0,96,0.00,,,0.00,Wunderground v.1.15,2013-07-28 06:29:00,
2013-07-28 02:32:00,59.6,58.5,29.94,ENE,67,0.0,1.0,96,0.00,,,0.00,Wunderground v.1.15,2013-07-28 06:32:00,
2013-07-28 02:33:00,59.6,58.5,29.94,ENE,67,0.0,1.0,96,0.00,,,0.00,Wunderground v.1.15,2013-07-28 06:33:00,
2013-07-28 02:35:00,59.6,58.5,29.94,ENE,67,0.0,1.0,96,0.00,,,0.00,Wunderground v.1.15,2013-07-28 06:35:00,
2013-07-28 02:37:00,59.5,58.4,29.94,ENE,67,0.0,1.0,96,0.00,,,0.00,Wunderground v.1.15,2013-07-28 06:37:00,
2013-07-28 02:38:00,59.5,58.4,29.94,ENE,67,0.0,1.0,96,0.00,,,0.00,Wunderground v.1.15,2013-07-28 06:38:00,
2013-07-28 02:39:00,59.5,58.4,29.94,ENE,67,0.0,1.0,96,0.00,,,0.00,Wunderground v.1.15,2013-07-28 06:39:00,
2013-07-28 02:40:00,59.6,58.7,29.94,ENE,67,0.0,0.0,97,0.00,,,0.00,Wunderground v.1.15,2013-07-28 06:40:00,
2013-07-28 02:42:00,59.6,58.7,29.94,ENE,67,0.0,2.0,97,0.00,,,0.00,Wunderground v.1.15,2013-07-28 06:42:00,
2013-07-28 02:43:00,59.6,58.7,29.94,ENE,67,0.0,2.0,97,0.00,,,0.00,Wunderground v.1.15,2013-07-28 06:43:00,
2013-07-28 02:44:00,59.6,58.7,29.94,ENE,67,1.0,2.0,97,0.00,,,0.00,Wunderground v.1.15,2013-07-28 06:44:00,
2013-07-28 02:45:00,59.5,58.4,29.94,ENE,67,0.0,2.0,96,0.00,,,0.00,Wunderground v.1.15,2013-07-28 06:45:00,
2013-07-28 02:47:00,59.5,58.4,29.94,ENE,67,0.0,2.0,96,0.00,,,0.00,Wunderground v.1.15,2013-07-28 06:47:00,
2013-07-28 02:48:00,59.4,58.3,29.93,ENE,67,0.0,2.0,96,0.00,,,0.00,Wunderground v.1.15,2013-07-28 06:48:00,
2013-07-28 02:49:00,59.4,58.3,29.93,ENE,67,0.0,2.0,96,0.00,,,0.00,Wunderground v.1.15,2013-07-28 06:49:00,
2013-07-28 02:51:00,59.3,58.2,29.94,ENE,67,1.0,1.0,96,0.00,,,0.00,Wunderground v.1.15,2013-07-28 06:51:00,
2013-07-28 02:52:00,59.3,58.2,29.94,ENE,67,0.0,2.0,96,0.00,,,0.00,Wunderground v.1.15,2013-07-28 06:52:00,
2013-07-28 02:53:00,59.2,58.1,29.94,ENE,67,0.0,2.0,96,0.00,,,0.00,Wunderground v.1.15,2013-07-28 06:53:00,
2013-07-28 02:54:00,59.2,58.1,29.94,ENE,67,1.0,2.0,96,0.00,,,0.00,Wunderground v.1.15,2013-07-28 06:54:00,
2013-07-28 02:55:00,59.2,58.1,29.94,ENE,67,2.0,2.0,96,0.00,,,0.00,Wunderground v.1.15,2013-07-28 06:55:00,
2013-07-28 02:56:00,59.3,58.2,29.94,ENE,67,1.0,2.0,96,0.00,,,0.00,Wunderground v.1.15,2013-07-28 06:56:00,
2013-07-28 02:58:00,59.3,58.4,29.93,ENE,67,1.0,2.0,97,0.00,,,0.00,Wunderground v.1.15,2013-07-28 06:58:00,
2013-07-28 02:59:00,59.3,58.4,29.93,ENE,67,1.0,2.0,97,0.00,,,0.00,Wunderground v.1.15,2013-07-28 06:59:00,
2013-07-28 03:00:00,59.3,58.4,29.93,ENE,67,0.0,1.0,97,0.00,,,0.00,Wunderground v.1.15,2013-07-28 07:00:00,
2013-07-28 03:01:00,59.4,58.5,29.93,ENE,67,0.0,1.0,97,0.00,,,0.00,Wunderground v.1.15,2013-07-28 07:01:00,
2013-07-28 03:03:00,59.4,58.5,29.93,ENE,67,0.0,2.0,97,0.00,,,0.00,Wunderground v.1.15,2013-07-28 07:03:00,
2013-07-28 03:04:00,59.4,58.5,29.93,ENE,67,0.0,2.0,97,0.00,,,0.00,Wunderground v.1.15,2013-07-28 07:04:00,
2013-07-28 03:05:00,59.4,58.5,29.93,ENE,67,0.0,2.0,97,0.00,,,0.00,Wunderground v.1.15,2013-07-28 07:05:00,
2013-07-28 03:06:00,59.4,58.5,29.93,ENE,67,0.0,2.0,97,0.00,,,0.00,Wunderground v.1.15,2013-07-28 07:06:00,
2013-07-28 03:08:00,59.4,58.5,29.93,ENE,67,1.0,2.0,97,0.00,,,0.00,Wunderground v.1.15,2013-07-28 07:08:00,
2013-07-28 03:09:00,59.4,58.5,29.93,ENE,67,0.0,2.0,97,0.00,,,0.00,Wunderground v.1.15,2013-07-28 07:09:00,
2013-07-28 03:11:00,59.4,58.5,29.93,ENE,67,0.0,0.0,97,0.00,,,0.00,Wunderground v.1.15,2013-07-28 07:11:00,
2013-07-28 03:12:00,59.4,58.5,29.93,ENE,67,0.0,0.0,97,0.00,,,0.00,Wunderground v.1.15,2013-07-28 07:12:00,
2013-07-28 03:13:00,59.4,58.5,29.93,ENE,67,0.0,0.0,97,0.00,,,0.00,Wunderground v.1.15,2013-07-28 07:13:00,
2013-07-28 03:15:00,59.5,58.6,29.93,ENE,67,0.0,1.0,97,0.00,,,0.00,Wunderground v.1.15,2013-07-28 07:15:00,
2013-07-28 03:17:00,59.6,58.7,29.93,ENE,67,1.0,2.0,97,0.00,,,0.00,Wunderground v.1.15,2013-07-28 07:17:00,
2013-07-28 03:18:00,59.7,58.8,29.94,ENE,67,0.0,2.0,97,0.00,,,0.00,Wunderground v.1.15,2013-07-28 07:18:00,
2013-07-28 03:20:00,59.8,58.9,29.93,ENE,67,0.0,1.0,97,0.00,,,0.00,Wunderground v.1.15,2013-07-28 07:20:00,
2013-07-28 03:22:00,59.8,58.9,29.93,ENE,67,0.0,1.0,97,0.00,,,0.00,Wunderground v.1.15,2013-07-28 07:22:00,
2013-07-28 03:23:00,59.8,58.9,29.93,ENE,67,0.0,1.0,97,0.00,,,0.00,Wunderground v.1.15,2013-07-28 07:23:00,
2013-07-28 03:25:00,59.8,58.9,29.93,ENE,67,0.0,1.0,97,0.00,,,0.00,Wunderground v.1.15,2013-07-28 07:25:00,
2013-07-28 03:27:00,59.8,58.9,29.93,ENE,67,0.0,1.0,97,0.00,,,0.00,Wunderground v.1.15,2013-07-28 07:27:00,
2013-07-28 03:28:00,59.9,59.0,29.93,ENE,67,0.0,1.0,97,0.00,,,0.00,Wunderground v.1.15,2013-07-28 07:28:00,
2013-07-28 03:31:00,59.9,59.0,29.93,ENE,67,1.0,1.0,97,0.00,,,0.00,Wunderground v.1.15,2013-07-28 07:31:00,
2013-07-28 03:32:00,59.9,59.0,29.93,ENE,67,0.0,1.0,97,0.00,,,0.00,Wunderground v.1.15,2013-07-28 07:32:00,
2013-07-28 03:33:00,59.9,59.0,29.93,ENE,67,0.0,1.0,97,0.00,,,0.00,Wunderground v.1.15,2013-07-28 07:33:00,
2013-07-28 03:34:00,60.0,59.1,29.93,ENE,67,0.0,1.0,97,0.00,,,0.00,Wunderground v.1.15,2013-07-28 07:34:00,
2013-07-28 03:36:00,60.1,59.2,29.93,ENE,67,0.0,1.0,97,0.00,,,0.00,Wunderground v.1.15,2013-07-28 07:36:00,
2013-07-28 03:37:00,60.1,59.2,29.93,ENE,67,0.0,1.0,97,0.00,,,0.00,Wunderground v.1.15,2013-07-28 07:37:00,
2013-07-28 03:38:00,60.1,59.2,29.93,ENE,67,0.0,1.0,97,0.00,,,0.00,Wunderground v.1.15,2013-07-28 07:38:00,
2013-07-28 03:39:00,60.2,59.6,29.93,ENE,67,0.0,1.0,98,0.00,,,0.00,Wunderground v.1.15,2013-07-28 07:39:00,
2013-07-28 03:42:00,60.3,59.7,29.93,ENE,74,0.0,5.0,98,0.00,,,0.00,Wunderground v.1.15,2013-07-28 07:42:00,
2013-07-28 03:43:00,60.3,59.7,29.93,ENE,74,2.0,5.0,98,0.00,,,0.00,Wunderground v.1.15,2013-07-28 07:43:00,
2013-07-28 03:44:00,60.4,59.8,29.93,ENE,74,0.0,5.0,98,0.00,,,0.00,Wunderground v.1.15,2013-07-28 07:44:00,
2013-07-28 03:45:00,60.4,59.8,29.93,ENE,74,0.0,5.0,98,0.00,,,0.00,Wunderground v.1.15,2013-07-28 07:45:00,
2013-07-28 03:47:00,60.5,59.6,29.93,ENE,65,0.0,5.0,97,0.00,,,0.00,Wunderground v.1.15,2013-07-28 07:47:00,
2013-07-28 03:48:00,60.5,59.6,29.92,NE,43,0.0,5.0,97,0.00,,,0.00,Wunderground v.1.15,2013-07-28 07:48:00,
2013-07-28 03:50:00,60.5,59.6,29.92,NE,43,0.0,1.0,97,0.00,,,0.00,Wunderground v.1.15,2013-07-28 07:50:00,
2013-07-28 03:52:00,60.5,59.6,29.92,NE,43,0.0,1.0,97,0.00,,,0.00,Wunderground v.1.15,2013-07-28 07:52:00,
2013-07-28 03:53:00,60.5,59.6,29.92,NE,43,0.0,1.0,97,0.00,,,0.00,Wunderground v.1.15,2013-07-28 07:53:00,
2013-07-28 03:54:00,60.5,59.6,29.92,NE,43,0.0,1.0,97,0.00,,,0.00,Wunderground v.1.15,2013-07-28 07:54:00,
2013-07-28 03:55:00,60.5,59.6,29.93,NE,43,0.0,1.0,97,0.00,,,0.00,Wunderground v.1.15,2013-07-28 07:55:00,
2013-07-28 03:57:00,60.4,59.5,29.93,NE,43,0.0,1.0,97,0.00,,,0.00,Wunderground v.1.15,2013-07-28 07:57:00,
2013-07-28 03:58:00,60.4,59.5,29.93,NE,43,0.0,1.0,97,0.00,,,0.00,Wunderground v.1.15,2013-07-28 07:58:00,
2013-07-28 03:59:00,60.4,59.5,29.92,NE,43,0.0,1.0,97,0.00,,,0.00,Wunderground v.1.15,2013-07-28 07:59:00,
2013-07-28 04:00:00,60.4,59.5,29.92,NE,43,0.0,1.0,97,0.00,,,0.00,Wunderground v.1.15,2013-07-28 08:00:00,
2013-07-28 04:01:00,60.4,59.5,29.92,NE,43,1.0,1.0,97,0.00,,,0.00,Wunderground v.1.15,2013-07-28 08:01:00,
2013-07-28 04:02:00,60.4,59.5,29.92,NE,43,0.0,1.0,97,0.00,,,0.00,Wunderground v.1.15,2013-07-28 08:02:00,
2013-07-28 04:03:00,60.4,59.5,29.92,NE,43,0.0,1.0,97,0.00,,,0.00,Wunderground v.1.15,2013-07-28 08:03:00,
2013-07-28 04:04:00,60.4,59.5,29.92,NE,43,0.0,1.0,97,0.00,,,0.00,Wunderground v.1.15,2013-07-28 08:04:00,
2013-07-28 04:06:00,60.4,59.5,29.92,NE,43,0.0,1.0,97,0.00,,,0.00,Wunderground v.1.15,2013-07-28 08:06:00,
2013-07-28 04:07:00,60.4,59.5,29.92,NE,43,0.0,1.0,97,0.00,,,0.00,Wunderground v.1.15,2013-07-28 08:07:00,
2013-07-28 04:08:00,60.4,59.5,29.92,NE,43,0.0,1.0,97,0.00,,,0.00,Wunderground v.1.15,2013-07-28 08:08:00,
2013-07-28 04:09:00,60.3,59.4,29.92,NE,43,0.0,1.0,97,0.00,,,0.00,Wunderground v.1.15,2013-07-28 08:09:00,
2013-07-28 04:12:00,60.3,59.4,29.92,NE,43,1.0,2.0,97,0.00,,,0.00,Wunderground v.1.15,2013-07-28 08:12:00,
2013-07-28 04:13:00,60.3,59.4,29.92,NE,43,0.0,2.0,97,0.00,,,0.00,Wunderground v.1.15,2013-07-28 08:13:00,
2013-07-28 04:15:00,60.3,59.4,29.92,NE,43,0.0,2.0,97,0.00,,,0.00,Wunderground v.1.15,2013-07-28 08:15:00,
2013-07-28 04:17:00,60.2,59.3,29.92,NE,43,0.0,2.0,97,0.00,,,0.00,Wunderground v.1.15,2013-07-28 08:17:00,
2013-07-28 04:19:00,60.2,59.3,29.92,NE,43,0.0,2.0,97,0.00,,,0.00,Wunderground v.1.15,2013-07-28 08:19:00,
2013-07-28 04:20:00,60.2,59.3,29.92,NE,43,0.0,1.0,97,0.00,,,0.00,Wunderground v.1.15,2013-07-28 08:20:00,
2013-07-28 04:22:00,60.2,59.3,29.92,NE,43,0.0,1.0,97,0.00,,,0.00,Wunderground v.1.15,2013-07-28 08:22:00,
2013-07-28 04:24:00,60.2,59.3,29.92,NE,43,0.0,1.0,97,0.00,,,0.00,Wunderground v.1.15,2013-07-28 08:24:00,
2013-07-28 04:25:00,60.2,59.3,29.92,NE,43,0.0,1.0,97,0.00,,,0.00,Wunderground v.1.15,2013-07-28 08:25:00,
2013-07-28 04:27:00,60.2,59.3,29.92,ENE,63,0.0,1.0,97,0.00,,,0.00,Wunderground v.1.15,2013-07-28 08:27:00,
2013-07-28 04:28:00,60.2,59.3,29.92,ENE,63,0.0,1.0,97,0.00,,,0.00,Wunderground v.1.15,2013-07-28 08:28:00,
2013-07-28 04:29:00,60.2,59.3,29.92,ENE,63,0.0,1.0,97,0.00,,,0.00,Wunderground v.1.15,2013-07-28 08:29:00,
2013-07-28 04:30:00,60.2,59.3,29.92,ENE,63,0.0,1.0,97,0.00,,,0.00,Wunderground v.1.15,2013-07-28 08:30:00,
2013-07-28 04:31:00,60.2,59.1,29.92,ENE,63,0.0,0.0,96,0.00,,,0.00,Wunderground v.1.15,2013-07-28 08:31:00,
2013-07-28 04:33:00,60.2,59.1,29.92,ENE,63,0.0,0.0,96,0.00,,,0.00,Wunderground v.1.15,2013-07-28 08:33:00,
2013-07-28 04:34:00,60.2,59.3,29.92,ENE,63,0.0,0.0,97,0.00,,,0.00,Wunderground v.1.15,2013-07-28 08:34:00,
2013-07-28 04:35:00,60.2,59.3,29.93,ENE,63,0.0,0.0,97,0.00,,,0.00,Wunderground v.1.15,2013-07-28 08:35:00,
2013-07-28 04:37:00,60.2,59.1,29.93,ENE,63,0.0,0.0,96,0.00,,,0.00,Wunderground v.1.15,2013-07-28 08:37:00,
2013-07-28 04:38:00,60.2,59.1,29.93,ENE,63,0.0,0.0,96,0.00,,,0.00,Wunderground v.1.15,2013-07-28 08:38:00,
2013-07-28 04:40:00,60.1,59.0,29.93,ENE,63,0.0,0.0,96,0.00,,,0.00,Wunderground v.1.15,2013-07-28 08:40:00,
2013-07-28 04:42:00,60.1,59.0,29.93,ENE,63,0.0,1.0,96,0.00,,,0.00,Wunderground v.1.15,2013-07-28 08:42:00,
2013-07-28 04:43:00,60.1,59.0,29.93,ENE,63,0.0,1.0,96,0.00,,,0.00,Wunderground v.1.15,2013-07-28 08:43:00,
2013-07-28 04:45:00,60.1,59.0,29.93,ENE,63,0.0,1.0,96,0.00,,,0.00,Wunderground v.1.15,2013-07-28 08:45:00,
2013-07-28 04:47:00,60.1,59.0,29.93,ENE,63,0.0,1.0,96,0.00,,,0.00,Wunderground v.1.15,2013-07-28 08:47:00,
2013-07-28 04:48:00,60.0,58.9,29.93,ENE,63,0.0,1.0,96,0.00,,,0.00,Wunderground v.1.15,2013-07-28 08:48:00,
2013-07-28 04:50:00,60.0,58.9,29.93,ENE,63,0.0,0.0,96,0.00,,,0.00,Wunderground v.1.15,2013-07-28 08:50:00,
2013-07-28 04:51:00,60.0,59.1,29.93,ENE,63,0.0,0.0,97,0.00,,,0.00,Wunderground v.1.15,2013-07-28 08:51:00,
2013-07-28 04:52:00,60.1,59.2,29.93,ENE,63,0.0,1.0,97,0.00,,,0.00,Wunderground v.1.15,2013-07-28 08:52:00,
2013-07-28 04:53:00,60.1,59.2,29.93,ENE,63,0.0,1.0,97,0.00,,,0.00,Wunderground v.1.15,2013-07-28 08:53:00,
2013-07-28 04:55:00,60.2,59.3,29.93,ENE,63,0.0,1.0,97,0.00,,,0.00,Wunderground v.1.15,2013-07-28 08:55:00,
2013-07-28 04:56:00,60.2,59.3,29.93,ENE,63,0.0,1.0,97,0.00,,,0.00,Wunderground v.1.15,2013-07-28 08:56:00,
2013-07-28 04:57:00,60.2,59.3,29.93,ENE,63,0.0,1.0,97,0.00,,,0.00,Wunderground v.1.15,2013-07-28 08:57:00,
2013-07-28 04:58:00,60.2,59.3,29.93,ENE,63,0.0,1.0,97,0.00,,,0.00,Wunderground v.1.15,2013-07-28 08:58:00,
2013-07-28 05:00:00,60.2,59.3,29.93,ENE,63,0.0,0.0,97,0.00,,,0.00,Wunderground v.1.15,2013-07-28 09:00:00,
2013-07-28 05:01:00,60.2,59.3,29.93,ENE,63,0.0,1.0,97,0.00,,,0.00,Wunderground v.1.15,2013-07-28 09:01:00,
2013-07-28 05:02:00,60.2,59.3,29.93,ENE,63,0.0,1.0,97,0.00,,,0.00,Wunderground v.1.15,2013-07-28 09:02:00,
2013-07-28 05:03:00,60.2,59.3,29.93,ENE,63,0.0,1.0,97,0.00,,,0.00,Wunderground v.1.15,2013-07-28 09:03:00,
2013-07-28 05:05:00,60.2,59.3,29.93,ENE,63,0.0,1.0,97,0.00,,,0.00,Wunderground v.1.15,2013-07-28 09:05:00,
2013-07-28 05:07:00,60.2,59.3,29.92,ENE,78,0.0,2.0,97,0.00,,,0.00,Wunderground v.1.15,2013-07-28 09:07:00,
2013-07-28 05:08:00,60.2,59.3,29.92,ENE,65,0.0,2.0,97,0.00,,,0.00,Wunderground v.1.15,2013-07-28 09:08:00,
2013-07-28 05:11:00,60.2,59.3,29.92,ENE,75,1.0,1.0,97,0.00,,,0.00,Wunderground v.1.15,2013-07-28 09:11:00,
2013-07-28 05:12:00,60.2,59.3,29.92,East,82,1.0,1.0,97,0.00,,,0.00,Wunderground v.1.15,2013-07-28 09:12:00,
2013-07-28 05:13:00,60.2,59.3,29.92,East,82,0.0,1.0,97,0.00,,,0.00,Wunderground v.1.15,2013-07-28 09:13:00,
2013-07-28 05:14:00,60.2,59.3,29.92,East,82,0.0,1.0,97,0.00,,,0.00,Wunderground v.1.15,2013-07-28 09:14:00,
2013-07-28 05:16:00,60.2,59.3,29.92,East,82,1.0,1.0,97,0.00,,,0.00,Wunderground v.1.15,2013-07-28 09:16:00,
2013-07-28 05:17:00,60.2,59.3,29.92,East,82,0.0,1.0,97,0.00,,,0.00,Wunderground v.1.15,2013-07-28 09:17:00,
2013-07-28 05:18:00,60.2,59.3,29.93,East,82,0.0,1.0,97,0.00,,,0.00,Wunderground v.1.15,2013-07-28 09:18:00,
2013-07-28 05:19:00,60.2,59.3,29.93,East,82,0.0,1.0,97,0.00,,,0.00,Wunderground v.1.15,2013-07-28 09:19:00,
2013-07-28 05:22:00,60.1,59.2,29.93,East,82,0.0,0.0,97,0.00,,,0.00,Wunderground v.1.15,2013-07-28 09:22:00,
2013-07-28 05:23:00,60.0,59.1,29.93,East,82,0.0,0.0,97,0.00,,,0.00,Wunderground v.1.15,2013-07-28 09:23:00,
2013-07-28 05:24:00,60.0,59.1,29.93,East,82,0.0,0.0,97,0.00,,,0.00,Wunderground v.1.15,2013-07-28 09:24:00,
2013-07-28 05:27:00,60.0,59.1,29.93,ENE,63,1.0,1.0,97,0.00,,,0.00,Wunderground v.1.15,2013-07-28 09:27:00,
2013-07-28 05:28:00,60.0,59.1,29.93,NE,55,0.0,1.0,97,0.00,,,0.00,Wunderground v.1.15,2013-07-28 09:28:00,
2013-07-28 05:29:00,60.0,59.1,29.93,NE,55,0.0,1.0,97,0.00,,,0.00,Wunderground v.1.15,2013-07-28 09:29:00,
2013-07-28 05:30:00,60.1,59.2,29.93,NE,55,0.0,1.0,97,0.00,,,0.00,Wunderground v.1.15,2013-07-28 09:30:00,
2013-07-28 05:32:00,60.1,59.2,29.93,NE,55,0.0,0.0,97,0.00,,,0.00,Wunderground v.1.15,2013-07-28 09:32:00,
2013-07-28 05:33:00,60.1,59.2,29.94,NE,55,0.0,0.0,97,0.00,,,0.00,Wunderground v.1.15,2013-07-28 09:33:00,
2013-07-28 05:34:00,60.0,59.1,29.94,NE,55,0.0,0.0,97,0.00,,,0.00,Wunderground v.1.15,2013-07-28 09:34:00,
2013-07-28 05:35:00,60.1,59.2,29.93,NE,55,0.0,0.0,97,0.00,,,0.00,Wunderground v.1.15,2013-07-28 09:35:00,
2013-07-28 05:37:00,60.0,59.1,29.94,NE,55,0.0,0.0,97,0.00,,,0.00,Wunderground v.1.15,2013-07-28 09:37:00,
2013-07-28 05:39:00,60.0,59.1,29.94,NE,55,0.0,0.0,97,0.00,,,0.00,Wunderground v.1.15,2013-07-28 09:39:00,
2013-07-28 05:40:00,59.9,59.0,29.94,NE,55,0.0,0.0,97,0.00,,,0.00,Wunderground v.1.15,2013-07-28 09:40:00,
2013-07-28 05:43:00,59.8,58.9,29.94,NE,55,0.0,0.0,97,0.00,,,0.00,Wunderground v.1.15,2013-07-28 09:43:00,
2013-07-28 05:44:00,59.8,58.9,29.94,NE,55,0.0,0.0,97,0.00,,,0.00,Wunderground v.1.15,2013-07-28 09:44:00,
2013-07-28 05:45:00,59.8,58.9,29.94,NE,55,0.0,0.0,97,0.00,,,0.00,Wunderground v.1.15,2013-07-28 09:45:00,
2013-07-28 05:48:00,59.8,58.9,29.94,NE,55,0.0,0.0,97,0.00,,,0.00,Wunderground v.1.15,2013-07-28 09:48:00,
2013-07-28 05:49:00,59.8,58.9,29.94,NE,55,0.0,0.0,97,0.00,,,0.00,Wunderground v.1.15,2013-07-28 09:49:00,
2013-07-28 05:50:00,59.8,58.9,29.94,NE,55,0.0,0.0,97,0.00,,,0.00,Wunderground v.1.15,2013-07-28 09:50:00,
2013-07-28 05:53:00,59.7,58.8,29.94,NE,55,0.0,0.0,97,0.00,,,0.00,Wunderground v.1.15,2013-07-28 09:53:00,
2013-07-28 05:54:00,59.7,58.8,29.94,NE,55,0.0,0.0,97,0.00,,,0.00,Wunderground v.1.15,2013-07-28 09:54:00,
2013-07-28 05:55:00,59.8,59.2,29.94,NE,55,0.0,0.0,98,0.00,,,0.00,Wunderground v.1.15,2013-07-28 09:55:00,
2013-07-28 05:58:00,59.8,59.2,29.94,NE,55,0.0,0.0,98,0.00,,,0.00,Wunderground v.1.15,2013-07-28 09:58:00,
2013-07-28 05:59:00,59.7,59.1,29.94,NE,55,0.0,0.0,98,0.00,,,0.00,Wunderground v.1.15,2013-07-28 09:59:00,
2013-07-28 06:00:00,59.7,59.1,29.94,NE,55,0.0,0.0,98,0.00,,,0.00,Wunderground v.1.15,2013-07-28 10:00:00,
2013-07-28 06:01:00,59.7,58.8,29.94,NE,55,1.0,1.0,97,0.00,,,0.00,Wunderground v.1.15,2013-07-28 10:01:00,
2013-07-28 06:03:00,59.5,58.6,29.94,NE,55,0.0,1.0,97,0.00,,,0.00,Wunderground v.1.15,2013-07-28 10:03:00,
2013-07-28 06:04:00,59.5,58.6,29.94,NE,55,0.0,1.0,97,0.00,,,0.00,Wunderground v.1.15,2013-07-28 10:04:00,
2013-07-28 06:05:00,59.5,58.6,29.94,NE,55,0.0,1.0,97,0.00,,,0.00,Wunderground v.1.15,2013-07-28 10:05:00,
2013-07-28 06:06:00,59.4,58.5,29.94,NE,55,0.0,1.0,97,0.00,,,0.00,Wunderground v.1.15,2013-07-28 10:06:00,
2013-07-28 06:09:00,59.4,58.5,29.93,NE,55,0.0,1.0,97,0.00,,,0.00,Wunderground v.1.15,2013-07-28 10:09:00,
2013-07-28 06:10:00,59.4,58.5,29.93,NE,55,0.0,0.0,97,0.00,,,0.00,Wunderground v.1.15,2013-07-28 10:10:00,
2013-07-28 06:11:00,59.4,58.5,29.93,NE,55,0.0,0.0,97,0.00,,,0.00,Wunderground v.1.15,2013-07-28 10:11:00,
2013-07-28 06:14:00,59.3,58.4,29.93,NE,55,0.0,0.0,97,0.00,,,0.00,Wunderground v.1.15,2013-07-28 10:14:00,
2013-07-28 06:15:00,59.2,58.3,29.93,NE,55,0.0,0.0,97,0.00,,,0.00,Wunderground v.1.15,2013-07-28 10:15:00,
2013-07-28 06:16:00,59.2,58.3,29.93,NE,55,0.0,0.0,97,0.00,,,0.00,Wunderground v.1.15,2013-07-28 10:16:00,
2013-07-28 06:19:00,59.2,58.3,29.93,NE,55,0.0,0.0,97,0.00,,,0.00,Wunderground v.1.15,2013-07-28 10:19:00,
2013-07-28 06:20:00,59.1,58.2,29.93,NE,55,0.0,1.0,97,0.00,,,0.00,Wunderground v.1.15,2013-07-28 10:20:00,
2013-07-28 06:21:00,59.1,58.5,29.93,NE,55,0.0,1.0,98,0.00,,,0.00,Wunderground v.1.15,2013-07-28 10:21:00,
2013-07-28 06:25:00,59.1,58.5,29.93,NE,55,0.0,1.0,98,0.00,,,0.00,Wunderground v.1.15,2013-07-28 10:25:00,
2013-07-28 06:26:00,59.1,58.5,29.93,NE,55,0.0,1.0,98,0.00,,,0.00,Wunderground v.1.15,2013-07-28 10:26:00,
2013-07-28 06:27:00,59.1,58.5,29.93,NE,55,0.0,1.0,98,0.00,,,0.00,Wunderground v.1.15,2013-07-28 10:27:00,
2013-07-28 06:30:00,59.1,58.5,29.93,NE,55,0.0,0.0,98,0.00,,,0.00,Wunderground v.1.15,2013-07-28 10:30:00,
2013-07-28 06:32:00,59.1,58.5,29.93,NE,55,0.0,0.0,98,0.00,,,0.00,Wunderground v.1.15,2013-07-28 10:32:00,
2013-07-28 06:33:00,59.1,58.5,29.93,NE,55,0.0,0.0,98,0.00,,,0.00,Wunderground v.1.15,2013-07-28 10:33:00,
2013-07-28 06:35:00,59.1,58.5,29.92,NE,55,0.0,0.0,98,0.00,,,0.00,Wunderground v.1.15,2013-07-28 10:35:00,
2013-07-28 06:37:00,59.2,58.6,29.92,NE,55,0.0,0.0,98,0.00,,,0.00,Wunderground v.1.15,2013-07-28 10:37:00,
2013-07-28 06:38:00,59.2,58.6,29.92,NE,55,0.0,0.0,98,0.00,,,0.00,Wunderground v.1.15,2013-07-28 10:38:00,
2013-07-28 06:40:00,59.2,58.6,29.92,NE,55,0.0,0.0,98,0.00,,,0.00,Wunderground v.1.15,2013-07-28 10:40:00,
2013-07-28 06:42:00,59.3,58.7,29.92,NE,55,0.0,0.0,98,0.00,,,0.00,Wunderground v.1.15,2013-07-28 10:42:00,
2013-07-28 06:43:00,59.3,58.7,29.92,NE,55,0.0,0.0,98,0.00,,,0.00,Wunderground v.1.15,2013-07-28 10:43:00,
2013-07-28 06:46:00,59.4,58.8,29.92,NE,55,0.0,0.0,98,0.00,,,0.00,Wunderground v.1.15,2013-07-28 10:46:00,
2013-07-28 06:48:00,59.5,58.9,29.93,NE,55,0.0,0.0,98,0.00,,,0.00,Wunderground v.1.15,2013-07-28 10:48:00,
2013-07-28 06:51:00,59.5,58.9,29.93,NE,55,0.0,0.0,98,0.00,,,0.00,Wunderground v.1.15,2013-07-28 10:51:00,
2013-07-28 06:53:00,59.5,58.9,29.93,NE,55,0.0,1.0,98,0.00,,,0.00,Wunderground v.1.15,2013-07-28 10:53:00,
2013-07-28 06:57:00,59.7,59.1,29.93,NE,55,0.0,1.0,98,0.00,,,0.00,Wunderground v.1.15,2013-07-28 10:57:00,
2013-07-28 06:58:00,59.7,59.1,29.93,NE,55,0.0,1.0,98,0.00,,,0.00,Wunderground v.1.15,2013-07-28 10:58:00,
2013-07-28 07:02:00,59.9,59.3,29.93,NE,55,0.0,1.0,98,0.00,,,0.00,Wunderground v.1.15,2013-07-28 11:02:00,
2013-07-28 07:03:00,59.9,59.3,29.93,NE,55,0.0,1.0,98,0.00,,,0.00,Wunderground v.1.15,2013-07-28 11:03:00,
2013-07-28 07:08:00,60.1,59.5,29.93,NE,55,0.0,1.0,98,0.00,,,0.00,Wunderground v.1.15,2013-07-28 11:08:00,
2013-07-28 07:09:00,60.1,59.5,29.93,NE,55,0.0,1.0,98,0.00,,,0.00,Wunderground v.1.15,2013-07-28 11:09:00,
2013-07-28 07:13:00,60.3,59.7,29.94,NE,55,0.0,0.0,98,0.00,,,0.00,Wunderground v.1.15,2013-07-28 11:13:00,
2013-07-28 07:14:00,60.3,59.7,29.94,NE,55,0.0,0.0,98,0.00,,,0.00,Wunderground v.1.15,2013-07-28 11:14:00,
2013-07-28 07:18:00,60.4,59.8,29.94,NE,55,0.0,0.0,98,0.00,,,0.00,Wunderground v.1.15,2013-07-28 11:18:00,
2013-07-28 07:19:00,60.4,59.8,29.94,NE,55,0.0,0.0,98,0.00,,,0.00,Wunderground v.1.15,2013-07-28 11:19:00,
2013-07-28 07:20:00,60.4,59.8,29.94,NE,55,0.0,0.0,98,0.00,,,0.00,Wunderground v.1.15,2013-07-28 11:20:00,
2013-07-28 07:23:00,60.5,59.9,29.94,NE,55,0.0,0.0,98,0.00,,,0.00,Wunderground v.1.15,2013-07-28 11:23:00,
2013-07-28 07:24:00,60.5,59.9,29.94,East,86,1.0,2.0,98,0.00,,,0.00,Wunderground v.1.15,2013-07-28 11:24:00,
2013-07-28 07:25:00,60.5,59.9,29.94,NE,40,0.0,6.0,98,0.00,,,0.00,Wunderground v.1.15,2013-07-28 11:25:00,
2013-07-28 07:28:00,60.5,59.9,29.95,ENE,77,0.0,6.0,98,0.00,,,0.00,Wunderground v.1.15,2013-07-28 11:28:00,
2013-07-28 07:29:00,60.5,59.9,29.95,ENE,68,0.0,6.0,98,0.00,,,0.00,Wunderground v.1.15,2013-07-28 11:29:00,
2013-07-28 07:30:00,60.5,59.9,29.95,ENE,73,1.0,6.0,98,0.00,,,0.00,Wunderground v.1.15,2013-07-28 11:30:00,
2013-07-28 07:34:00,60.4,59.8,29.95,ENE,69,0.0,5.0,98,0.00,,,0.00,Wunderground v.1.15,2013-07-28 11:34:00,
2013-07-28 07:35:00,60.5,59.9,29.95,ENE,70,0.0,5.0,98,0.00,,,0.00,Wunderground v.1.15,2013-07-28 11:35:00,
2013-07-28 07:39:00,60.4,59.8,29.95,East,84,0.0,5.0,98,0.00,,,0.00,Wunderground v.1.15,2013-07-28 11:39:00,
2013-07-28 07:40:00,60.4,59.8,29.95,ENE,67,3.0,3.0,98,0.00,,,0.00,Wunderground v.1.15,2013-07-28 11:40:00,
2013-07-28 07:41:00,60.3,59.7,29.95,NNE,28,0.0,3.0,98,0.00,,,0.00,Wunderground v.1.15,2013-07-28 11:41:00,
2013-07-28 07:44:00,60.3,59.7,29.95,NE,48,0.0,7.0,98,0.00,,,0.00,Wunderground v.1.15,2013-07-28 11:44:00,
2013-07-28 07:45:00,60.3,59.7,29.95,ENE,70,4.0,7.0,98,0.00,,,0.00,Wunderground v.1.15,2013-07-28 11:45:00,
2013-07-28 07:46:00,60.3,59.7,29.95,NNE,17,0.0,7.0,98,0.00,,,0.00,Wunderground v.1.15,2013-07-28 11:46:00,
2013-07-28 07:49:00,60.3,59.7,29.95,ENE,67,1.0,7.0,98,0.00,,,0.00,Wunderground v.1.15,2013-07-28 11:49:00,
2013-07-28 07:50:00,60.3,59.7,29.95,ENE,73,0.0,7.0,98,0.00,,,0.00,Wunderground v.1.15,2013-07-28 11:50:00,
2013-07-28 07:51:00,60.3,59.7,29.95,East,99,2.0,2.0,98,0.00,,,0.00,Wunderground v.1.15,2013-07-28 11:51:00,
2013-07-28 07:52:00,60.2,59.6,29.96,NE,45,1.0,3.0,98,0.00,,,0.00,Wunderground v.1.15,2013-07-28 11:52:00,
2013-07-28 07:54:00,60.3,59.7,29.95,NE,49,0.0,4.0,98,0.00,,,0.00,Wunderground v.1.15,2013-07-28 11:54:00,
2013-07-28 07:55:00,60.3,59.7,29.95,NNE,19,1.0,4.0,98,0.00,,,0.00,Wunderground v.1.15,2013-07-28 11:55:00,
2013-07-28 07:57:00,60.3,59.7,29.95,East,90,0.0,4.0,98,0.00,,,0.00,Wunderground v.1.15,2013-07-28 11:57:00,
2013-07-28 08:00:00,60.3,59.7,29.95,NE,41,3.0,3.0,98,0.00,,,0.00,Wunderground v.1.15,2013-07-28 12:00:00,
2013-07-28 08:01:00,60.3,59.7,29.95,NNE,21,3.0,3.0,98,0.00,,,0.00,Wunderground v.1.15,2013-07-28 12:01:00,
2013-07-28 08:02:00,60.3,59.7,29.95,ESE,105,2.0,5.0,98,0.00,,,0.00,Wunderground v.1.15,2013-07-28 12:02:00,
2013-07-28 08:05:00,60.3,59.7,29.95,NE,37,1.0,5.0,98,0.00,,,0.00,Wunderground v.1.15,2013-07-28 12:05:00,
2013-07-28 08:06:00,60.3,59.7,29.95,NE,47,0.0,5.0,98,0.00,,,0.00,Wunderground v.1.15,2013-07-28 12:06:00,
2013-07-28 08:07:00,60.3,59.7,29.95,NE,50,0.0,5.0,98,0.00,,,0.00,Wunderground v.1.15,2013-07-28 12:07:00,
2013-07-28 08:10:00,60.4,59.8,29.95,NE,40,0.0,1.0,98,0.00,,,0.00,Wunderground v.1.15,2013-07-28 12:10:00,
2013-07-28 08:11:00,60.4,59.8,29.95,NE,40,0.0,1.0,98,0.00,,,0.00,Wunderground v.1.15,2013-07-28 12:11:00,
2013-07-28 08:13:00,60.4,59.8,29.95,ENE,76,0.0,1.0,98,0.00,,,0.00,Wunderground v.1.15,2013-07-28 12:13:00,
2013-07-28 08:16:00,60.5,59.9,29.95,NE,51,0.0,1.0,98,0.00,,,0.00,Wunderground v.1.15,2013-07-28 12:16:00,
2013-07-28 08:18:00,60.7,60.1,29.95,NE,51,0.0,1.0,98,0.00,,,0.00,Wunderground v.1.15,2013-07-28 12:18:00,
2013-07-28 08:22:00,60.9,60.3,29.95,NE,51,0.0,0.0,98,0.00,,,0.00,Wunderground v.1.15,2013-07-28 12:22:00,
2013-07-28 08:23:00,61.0,60.7,29.95,NE,51,0.0,0.0,99,0.00,,,0.00,Wunderground v.1.15,2013-07-28 12:23:00,
2013-07-28 08:24:00,61.1,60.8,29.95,NE,51,0.0,0.0,99,0.00,,,0.00,Wunderground v.1.15,2013-07-28 12:24:00,
2013-07-28 08:27:00,61.4,61.1,29.95,NE,51,0.0,0.0,99,0.00,,,0.00,Wunderground v.1.15,2013-07-28 12:27:00,
2013-07-28 08:28:00,61.6,61.3,29.95,NE,51,0.0,1.0,99,0.00,,,0.00,Wunderground v.1.15,2013-07-28 12:28:00,
2013-07-28 08:29:00,61.6,61.3,29.95,NE,51,0.0,1.0,99,0.00,,,0.00,Wunderground v.1.15,2013-07-28 12:29:00,
2013-07-28 08:32:00,61.7,61.1,29.95,NW,309,0.0,2.0,98,0.00,,,0.00,Wunderground v.1.15,2013-07-28 12:32:00,
2013-07-28 08:33:00,61.7,61.1,29.96,NW,309,0.0,2.0,98,0.00,,,0.00,Wunderground v.1.15,2013-07-28 12:33:00,
2013-07-28 08:34:00,61.7,61.1,29.96,NW,309,0.0,2.0,98,0.00,,,0.00,Wunderground v.1.15,2013-07-28 12:34:00,
2013-07-28 08:38:00,62.0,61.4,29.95,NW,309,0.0,2.0,98,0.00,,,0.00,Wunderground v.1.15,2013-07-28 12:38:00,
2013-07-28 08:39:00,62.0,61.4,29.95,NW,309,0.0,2.0,98,0.00,,,0.00,Wunderground v.1.15,2013-07-28 12:39:00,
2013-07-28 08:43:00,62.0,61.4,29.95,NW,309,0.0,1.0,98,0.00,,,0.00,Wunderground v.1.15,2013-07-28 12:43:00,
2013-07-28 08:44:00,62.1,61.5,29.95,NW,309,0.0,1.0,98,0.00,,,0.00,Wunderground v.1.15,2013-07-28 12:44:00,
2013-07-28 08:45:00,62.1,61.5,29.95,NW,309,0.0,1.0,98,0.00,,,0.00,Wunderground v.1.15,2013-07-28 12:45:00,
2013-07-28 08:48:00,62.2,61.6,29.95,NW,309,0.0,1.0,98,0.00,,,0.00,Wunderground v.1.15,2013-07-28 12:48:00,
2013-07-28 08:49:00,62.2,61.6,29.95,NW,309,0.0,1.0,98,0.00,,,0.00,Wunderground v.1.15,2013-07-28 12:49:00,
2013-07-28 08:50:00,62.2,61.6,29.95,NW,309,0.0,0.0,98,0.00,,,0.00,Wunderground v.1.15,2013-07-28 12:50:00,
2013-07-28 08:53:00,62.3,61.7,29.95,NW,309,0.0,1.0,98,0.00,,,0.00,Wunderground v.1.15,2013-07-28 12:53:00,
2013-07-28 08:54:00,62.4,61.5,29.95,NW,309,0.0,1.0,97,0.00,,,0.00,Wunderground v.1.15,2013-07-28 12:54:00,
2013-07-28 08:55:00,62.4,61.5,29.95,NW,309,0.0,1.0,97,0.00,,,0.00,Wunderground v.1.15,2013-07-28 12:55:00,
2013-07-28 08:56:00,62.4,61.5,29.95,NW,309,0.0,1.0,97,0.00,,,0.00,Wunderground v.1.15,2013-07-28 12:56:00,
2013-07-28 08:58:00,62.5,61.6,29.95,NW,309,0.0,1.0,97,0.00,,,0.00,Wunderground v.1.15,2013-07-28 12:58:00,
2013-07-28 08:59:00,62.5,61.6,29.95,NW,309,0.0,1.0,97,0.00,,,0.00,Wunderground v.1.15,2013-07-28 12:59:00,
2013-07-28 09:00:00,62.6,61.7,29.95,NW,309,0.0,0.0,97,0.00,,,0.00,Wunderground v.1.15,2013-07-28 13:00:00,
2013-07-28 09:01:00,62.6,61.7,29.95,NW,309,0.0,0.0,97,0.00,,,0.00,Wunderground v.1.15,2013-07-28 13:01:00,
2013-07-28 09:03:00,62.7,61.8,29.95,NW,309,0.0,0.0,97,0.00,,,0.00,Wunderground v.1.15,2013-07-28 13:03:00,
2013-07-28 09:04:00,62.6,61.7,29.95,NW,309,0.0,0.0,97,0.00,,,0.00,Wunderground v.1.15,2013-07-28 13:04:00,
2013-07-28 09:05:00,62.6,61.7,29.95,NW,309,0.0,0.0,97,0.00,,,0.00,Wunderground v.1.15,2013-07-28 13:05:00,
2013-07-28 09:06:00,62.6,61.7,29.95,NW,309,0.0,0.0,97,0.00,,,0.00,Wunderground v.1.15,2013-07-28 13:06:00,
2013-07-28 09:08:00,62.7,61.8,29.95,NW,309,0.0,0.0,97,0.00,,,0.00,Wunderground v.1.15,2013-07-28 13:08:00,
2013-07-28 09:09:00,62.7,61.8,29.95,NW,309,0.0,0.0,97,0.00,,,0.00,Wunderground v.1.15,2013-07-28 13:09:00,
2013-07-28 09:10:00,62.8,61.9,29.95,NW,309,0.0,1.0,97,0.00,,,0.00,Wunderground v.1.15,2013-07-28 13:10:00,
2013-07-28 09:11:00,62.8,61.9,29.95,NW,309,0.0,1.0,97,0.00,,,0.00,Wunderground v.1.15,2013-07-28 13:11:00,
2013-07-28 09:12:00,62.9,61.7,29.95,West,269,0.0,2.0,96,0.00,,,0.00,Wunderground v.1.15,2013-07-28 13:12:00,
2013-07-28 09:13:00,62.9,61.7,29.95,West,269,0.0,2.0,96,0.00,,,0.00,Wunderground v.1.15,2013-07-28 13:13:00,
2013-07-28 09:14:00,63.0,61.8,29.95,West,269,0.0,2.0,96,0.00,,,0.00,Wunderground v.1.15,2013-07-28 13:14:00,
2013-07-28 09:15:00,63.1,61.9,29.95,West,269,0.0,2.0,96,0.00,,,0.00,Wunderground v.1.15,2013-07-28 13:15:00,
2013-07-28 09:17:00,63.4,62.5,29.95,West,269,1.0,2.0,97,0.00,,,0.00,Wunderground v.1.15,2013-07-28 13:17:00,
2013-07-28 09:19:00,63.5,62.3,29.94,West,269,0.0,2.0,96,0.00,,,0.00,Wunderground v.1.15,2013-07-28 13:19:00,
2013-07-28 09:20:00,63.6,62.4,29.94,West,269,1.0,1.0,96,0.00,,,0.00,Wunderground v.1.15,2013-07-28 13:20:00,
2013-07-28 09:22:00,63.8,62.6,29.95,West,269,0.0,1.0,96,0.00,,,0.00,Wunderground v.1.15,2013-07-28 13:22:00,
2013-07-28 09:24:00,63.9,62.4,29.95,West,269,0.0,1.0,95,0.00,,,0.00,Wunderground v.1.15,2013-07-28 13:24:00,
2013-07-28 09:25:00,63.9,62.1,29.95,West,269,0.0,1.0,94,0.00,,,0.00,Wunderground v.1.15,2013-07-28 13:25:00,
2013-07-28 09:27:00,64.0,62.5,29.94,West,269,0.0,1.0,95,0.00,,,0.00,Wunderground v.1.15,2013-07-28 13:27:00,
2013-07-28 09:28:00,64.1,62.6,29.94,West,269,0.0,2.0,95,0.00,,,0.00,Wunderground v.1.15,2013-07-28 13:28:00,
2013-07-28 09:29:00,64.1,62.3,29.94,West,269,0.0,2.0,94,0.00,,,0.00,Wunderground v.1.15,2013-07-28 13:29:00,
2013-07-28 09:30:00,64.1,62.3,29.94,West,269,0.0,0.0,94,0.00,,,0.00,Wunderground v.1.15,2013-07-28 13:30:00,
2013-07-28 09:33:00,64.2,62.4,29.94,West,269,0.0,0.0,94,0.00,,,0.00,Wunderground v.1.15,2013-07-28 13:33:00,
2013-07-28 09:35:00,64.2,62.1,29.94,West,269,0.0,0.0,93,0.00,,,0.00,Wunderground v.1.15,2013-07-28 13:35:00,
2013-07-28 09:37:00,64.3,62.2,29.94,West,269,0.0,0.0,93,0.00,,,0.00,Wunderground v.1.15,2013-07-28 13:37:00,
2013-07-28 09:38:00,64.3,62.5,29.94,West,269,0.0,1.0,94,0.00,,,0.00,Wunderground v.1.15,2013-07-28 13:38:00,
2013-07-28 09:39:00,64.4,62.6,29.94,West,269,0.0,1.0,94,0.00,,,0.00,Wunderground v.1.15,2013-07-28 13:39:00,
2013-07-28 09:40:00,64.5,63.0,29.94,West,269,0.0,0.0,95,0.00,,,0.00,Wunderground v.1.15,2013-07-28 13:40:00,
2013-07-28 09:41:00,64.5,63.0,29.94,West,269,1.0,1.0,95,0.00,,,0.00,Wunderground v.1.15,2013-07-28 13:41:00,
2013-07-28 09:43:00,64.6,62.8,29.94,West,269,0.0,3.0,94,0.00,,,0.00,Wunderground v.1.15,2013-07-28 13:43:00,
2013-07-28 09:44:00,64.6,62.8,29.94,West,269,0.0,3.0,94,0.00,,,0.00,Wunderground v.1.15,2013-07-28 13:44:00,
2013-07-28 09:45:00,64.6,62.8,29.94,West,269,0.0,3.0,94,0.00,,,0.00,Wunderground v.1.15,2013-07-28 13:45:00,
2013-07-28 09:46:00,64.7,62.6,29.94,West,269,0.0,3.0,93,0.00,,,0.00,Wunderground v.1.15,2013-07-28 13:46:00,
2013-07-28 09:49:00,64.7,62.9,29.94,West,269,0.0,3.0,94,0.00,,,0.00,Wunderground v.1.15,2013-07-28 13:49:00,
2013-07-28 09:51:00,64.8,63.0,29.94,West,269,0.0,1.0,94,0.00,,,0.00,Wunderground v.1.15,2013-07-28 13:51:00,
2013-07-28 09:54:00,64.7,62.3,29.95,West,269,0.0,1.0,92,0.00,,,0.00,Wunderground v.1.15,2013-07-28 13:54:00,
2013-07-28 09:56:00,64.6,62.5,29.95,West,269,0.0,1.0,93,0.00,,,0.00,Wunderground v.1.15,2013-07-28 13:56:00,
2013-07-28 09:59:00,64.8,63.0,29.95,West,269,0.0,1.0,94,0.00,,,0.00,Wunderground v.1.15,2013-07-28 13:59:00,
2013-07-28 10:02:00,65.0,62.6,29.95,West,269,2.0,2.0,92,0.00,,,0.00,Wunderground v.1.15,2013-07-28 14:02:00,
2013-07-28 10:04:00,65.2,62.8,29.94,West,269,0.0,2.0,92,0.00,,,0.00,Wunderground v.1.15,2013-07-28 14:04:00,
2013-07-28 10:05:00,65.3,62.9,29.94,West,269,1.0,2.0,92,0.00,,,0.00,Wunderground v.1.15,2013-07-28 14:05:00,
2013-07-28 10:07:00,65.4,63.3,29.94,West,269,0.0,2.0,93,0.00,,,0.00,Wunderground v.1.15,2013-07-28 14:07:00,
2013-07-28 10:09:00,65.7,63.6,29.94,West,269,0.0,2.0,93,0.00,,,0.00,Wunderground v.1.15,2013-07-28 14:09:00,
2013-07-28 10:10:00,65.8,63.7,29.94,West,269,0.0,0.0,93,0.00,,,0.00,Wunderground v.1.15,2013-07-28 14:10:00,
2013-07-28 10:12:00,66.0,63.9,29.94,West,269,0.0,0.0,93,0.00,,,0.00,Wunderground v.1.15,2013-07-28 14:12:00,
2013-07-28 10:15:00,66.5,64.1,29.94,West,269,2.0,2.0,92,0.00,,,0.00,Wunderground v.1.15,2013-07-28 14:15:00,
2013-07-28 10:16:00,66.5,64.1,29.94,West,269,0.0,2.0,92,0.00,,,0.00,Wunderground v.1.15,2013-07-28 14:16:00,
2013-07-28 10:17:00,66.7,64.0,29.94,SSE,159,0.0,2.0,91,0.00,,,0.00,Wunderground v.1.15,2013-07-28 14:17:00,
2013-07-28 10:18:00,66.7,64.0,29.94,SSE,159,0.0,2.0,91,0.00,,,0.00,Wunderground v.1.15,2013-07-28 14:18:00,
2013-07-28 10:20:00,67.0,64.0,29.94,NNW,348,0.0,1.0,90,0.00,,,0.00,Wunderground v.1.15,2013-07-28 14:20:00,
2013-07-28 10:21:00,67.0,64.3,29.94,ESE,117,0.0,1.0,91,0.00,,,0.00,Wunderground v.1.15,2013-07-28 14:21:00,
2013-07-28 10:23:00,67.2,63.8,29.94,SSW,210,0.0,1.0,89,0.00,,,0.00,Wunderground v.1.15,2013-07-28 14:23:00,
2013-07-28 10:25:00,67.4,64.0,29.94,SSW,206,2.0,3.0,89,0.00,,,0.00,Wunderground v.1.15,2013-07-28 14:25:00,
2013-07-28 10:26:00,67.4,63.7,29.94,SSW,207,0.0,3.0,88,0.00,,,0.00,Wunderground v.1.15,2013-07-28 14:26:00,
2013-07-28 10:28:00,67.4,63.7,29.94,SSW,194,0.0,6.0,88,0.00,,,0.00,Wunderground v.1.15,2013-07-28 14:28:00,
2013-07-28 10:31:00,67.7,64.0,29.94,NNE,25,0.0,3.0,88,0.00,,,0.00,Wunderground v.1.15,2013-07-28 14:31:00,
2013-07-28 10:33:00,67.9,64.2,29.94,NNE,25,0.0,3.0,88,0.00,,,0.00,Wunderground v.1.15,2013-07-28 14:33:00,
2013-07-28 10:34:00,67.9,64.5,29.94,NNE,25,0.0,3.0,89,0.00,,,0.00,Wunderground v.1.15,2013-07-28 14:34:00,
2013-07-28 10:36:00,68.0,63.7,29.94,NE,55,0.0,3.0,86,0.00,,,0.00,Wunderground v.1.15,2013-07-28 14:36:00,
2013-07-28 10:38:00,68.1,63.8,29.94,WSW,246,2.0,5.0,86,0.00,,,0.00,Wunderground v.1.15,2013-07-28 14:38:00,
2013-07-28 10:39:00,68.2,64.2,29.94,South,190,4.0,5.0,87,0.00,,,0.00,Wunderground v.1.15,2013-07-28 14:39:00,
2013-07-28 10:42:00,68.4,64.4,29.94,SW,219,0.0,2.0,87,0.00,,,0.00,Wunderground v.1.15,2013-07-28 14:42:00,
2013-07-28 10:44:00,68.7,64.0,29.93,SW,219,1.0,2.0,85,0.00,,,0.00,Wunderground v.1.15,2013-07-28 14:44:00,
2013-07-28 10:47:00,69.0,63.6,29.93,SSW,207,3.0,7.0,83,0.00,,,0.00,Wunderground v.1.15,2013-07-28 14:47:00,
2013-07-28 10:48:00,69.1,63.7,29.93,South,169,2.0,7.0,83,0.00,,,0.00,Wunderground v.1.15,2013-07-28 14:48:00,
2013-07-28 10:49:00,69.1,63.7,29.93,North,355,2.0,7.0,83,0.00,,,0.00,Wunderground v.1.15,2013-07-28 14:49:00,
2013-07-28 10:52:00,69.5,64.8,29.93,WSW,241,2.0,2.0,85,0.00,,,0.00,Wunderground v.1.15,2013-07-28 14:52:00,
2013-07-28 10:53:00,69.7,64.3,29.93,SSE,152,0.0,5.0,83,0.00,,,0.00,Wunderground v.1.15,2013-07-28 14:53:00,
2013-07-28 10:54:00,69.8,64.4,29.93,SSE,148,0.0,5.0,83,0.00,,,0.00,Wunderground v.1.15,2013-07-28 14:54:00,
2013-07-28 10:55:00,70.0,65.3,29.93,SW,219,0.0,5.0,85,0.00,,,0.00,Wunderground v.1.15,2013-07-28 14:55:00,
2013-07-28 10:57:00,70.3,65.2,29.93,NE,36,0.0,5.0,84,0.00,,,0.00,Wunderground v.1.15,2013-07-28 14:57:00,
2013-07-28 10:58:00,70.6,65.5,29.93,ENE,61,0.0,5.0,84,0.00,,,0.00,Wunderground v.1.15,2013-07-28 14:58:00,
2013-07-28 10:59:00,70.7,65.6,29.93,SE,129,0.0,5.0,84,0.00,,,0.00,Wunderground v.1.15,2013-07-28 14:59:00,
2013-07-28 11:00:00,70.7,65.3,29.93,East,91,2.0,4.0,83,0.00,,,0.00,Wunderground v.1.15,2013-07-28 15:00:00,
2013-07-28 11:02:00,70.6,64.8,29.93,ENE,57,0.0,6.0,82,0.00,,,0.00,Wunderground v.1.15,2013-07-28 15:02:00,
2013-07-28 11:03:00,70.6,65.9,29.93,ENE,57,0.0,6.0,85,0.00,,,0.00,Wunderground v.1.15,2013-07-28 15:03:00,
2013-07-28 11:05:00,70.6,65.2,29.93,SW,215,5.0,6.0,83,0.00,,,0.00,Wunderground v.1.15,2013-07-28 15:05:00,
2013-07-28 11:07:00,70.4,65.7,29.93,SSW,209,0.0,6.0,85,0.00,,,0.00,Wunderground v.1.15,2013-07-28 15:07:00,
2013-07-28 11:08:00,70.5,65.8,29.93,SSE,148,4.0,6.0,85,0.00,,,0.00,Wunderground v.1.15,2013-07-28 15:08:00,
2013-07-28 11:10:00,70.6,65.9,29.93,NNE,26,0.0,2.0,85,0.00,,,0.00,Wunderground v.1.15,2013-07-28 15:10:00,
2013-07-28 11:11:00,70.6,65.9,29.93,SSW,195,1.0,5.0,85,0.00,,,0.00,Wunderground v.1.15,2013-07-28 15:11:00,
2013-07-28 11:12:00,70.8,65.7,29.93,SSW,196,1.0,5.0,84,0.00,,,0.00,Wunderground v.1.15,2013-07-28 15:12:00,
2013-07-28 11:13:00,70.8,66.1,29.93,North,360,0.0,5.0,85,0.00,,,0.00,Wunderground v.1.15,2013-07-28 15:13:00,
2013-07-28 11:14:00,71.0,66.3,29.93,NNE,18,0.0,5.0,85,0.00,,,0.00,Wunderground v.1.15,2013-07-28 15:14:00,
2013-07-28 11:15:00,71.2,66.8,29.93,NE,55,0.0,5.0,86,0.00,,,0.00,Wunderground v.1.15,2013-07-28 15:15:00,
2013-07-28 11:17:00,71.3,65.9,29.93,NNE,29,2.0,5.0,83,0.00,,,0.00,Wunderground v.1.15,2013-07-28 15:17:00,
2013-07-28 11:19:00,71.3,65.9,29.93,NE,48,2.0,6.0,83,0.00,,,0.00,Wunderground v.1.15,2013-07-28 15:19:00,
2013-07-28 11:20:00,71.3,65.9,29.92,NE,55,0.0,2.0,83,0.00,,,0.00,Wunderground v.1.15,2013-07-28 15:20:00,
2013-07-28 11:22:00,71.2,65.4,29.92,SSE,166,1.0,5.0,82,0.00,,,0.00,Wunderground v.1.15,2013-07-28 15:22:00,
2013-07-28 11:23:00,71.2,65.4,29.92,SSW,197,0.0,5.0,82,0.00,,,0.00,Wunderground v.1.15,2013-07-28 15:23:00,
2013-07-28 11:24:00,70.9,64.8,29.92,NNE,33,0.0,5.0,81,0.00,,,0.00,Wunderground v.1.15,2013-07-28 15:24:00,
2013-07-28 11:25:00,70.7,64.9,29.92,SE,130,0.0,5.0,82,0.00,,,0.00,Wunderground v.1.15,2013-07-28 15:25:00,
2013-07-28 11:27:00,70.5,65.4,29.92,ENE,57,1.0,5.0,84,0.00,,,0.00,Wunderground v.1.15,2013-07-28 15:27:00,
2013-07-28 11:28:00,70.4,64.6,29.92,NE,38,3.0,5.0,82,0.00,,,0.00,Wunderground v.1.15,2013-07-28 15:28:00,
2013-07-28 11:29:00,70.4,65.3,29.92,SW,221,0.0,5.0,84,0.00,,,0.00,Wunderground v.1.15,2013-07-28 15:29:00,
2013-07-28 11:31:00,70.2,65.1,29.92,WSW,246,0.0,5.0,84,0.00,,,0.00,Wunderground v.1.15,2013-07-28 15:31:00,
2013-07-28 11:33:00,70.1,65.0,29.92,ESE,107,0.0,5.0,84,0.00,,,0.00,Wunderground v.1.15,2013-07-28 15:33:00,
2013-07-28 11:34:00,70.1,65.4,29.92,NNE,20,0.0,5.0,85,0.00,,,0.00,Wunderground v.1.15,2013-07-28 15:34:00,
2013-07-28 11:35:00,70.1,65.4,29.92,NNE,20,0.0,5.0,85,0.00,,,0.00,Wunderground v.1.15,2013-07-28 15:35:00,
2013-07-28 11:36:00,70.1,65.4,29.92,South,171,0.0,5.0,85,0.00,,,0.00,Wunderground v.1.15,2013-07-28 15:36:00,
2013-07-28 11:38:00,70.0,65.3,29.92,ENE,68,0.0,5.0,85,0.00,,,0.00,Wunderground v.1.15,2013-07-28 15:38:00,
2013-07-28 11:40:00,70.0,64.9,29.92,ENE,67,1.0,3.0,84,0.00,,,0.00,Wunderground v.1.15,2013-07-28 15:40:00,
2013-07-28 11:41:00,70.0,65.3,29.92,ENE,61,0.0,3.0,85,0.00,,,0.00,Wunderground v.1.15,2013-07-28 15:41:00,
2013-07-28 11:43:00,70.0,64.6,29.92,NE,54,1.0,3.0,83,0.00,,,0.00,Wunderground v.1.15,2013-07-28 15:43:00,
2013-07-28 11:44:00,70.0,64.9,29.92,NNE,19,0.0,3.0,84,0.00,,,0.00,Wunderground v.1.15,2013-07-28 15:44:00,
2013-07-28 11:45:00,70.0,65.3,29.92,East,99,4.0,4.0,85,0.00,,,0.00,Wunderground v.1.15,2013-07-28 15:45:00,
2013-07-28 11:46:00,70.0,64.9,29.92,ESE,110,5.0,5.0,84,0.00,,,0.00,Wunderground v.1.15,2013-07-28 15:46:00,
2013-07-28 11:48:00,69.9,64.8,29.92,NNE,17,0.0,5.0,84,0.00,,,0.00,Wunderground v.1.15,2013-07-28 15:48:00,
2013-07-28 11:49:00,69.9,65.2,29.92,NE,40,2.0,5.0,85,0.00,,,0.00,Wunderground v.1.15,2013-07-28 15:49:00,
2013-07-28 11:50:00,69.9,65.2,29.92,SE,137,0.0,1.0,85,0.00,,,0.00,Wunderground v.1.15,2013-07-28 15:50:00,
2013-07-28 11:52:00,69.9,65.9,29.92,East,88,1.0,4.0,87,0.00,,,0.00,Wunderground v.1.15,2013-07-28 15:52:00,
2013-07-28 11:54:00,70.0,65.6,29.92,NE,51,0.0,4.0,86,0.00,,,0.00,Wunderground v.1.15,2013-07-28 15:54:00,
2013-07-28 11:55:00,70.1,65.7,29.92,WNW,295,0.0,4.0,86,0.00,,,0.00,Wunderground v.1.15,2013-07-28 15:55:00,
2013-07-28 11:56:00,70.1,66.0,29.92,ESE,113,0.0,4.0,87,0.00,,,0.00,Wunderground v.1.15,2013-07-28 15:56:00,
2013-07-28 11:57:00,70.1,65.7,29.92,NNE,33,2.0,4.0,86,0.00,,,0.00,Wunderground v.1.15,2013-07-28 15:57:00,
2013-07-28 12:00:00,70.1,65.0,29.92,ESE,106,0.0,6.0,84,0.00,,,0.00,Wunderground v.1.15,2013-07-28 16:00:00,
2013-07-28 12:01:00,70.1,65.0,29.92,NNE,26,0.0,1.0,84,0.00,,,0.00,Wunderground v.1.15,2013-07-28 16:01:00,
2013-07-28 12:02:00,70.1,65.0,29.92,NE,45,0.0,4.0,84,0.00,,,0.00,Wunderground v.1.15,2013-07-28 16:02:00,
2013-07-28 12:05:00,70.1,65.0,29.92,SSE,157,0.0,4.0,84,0.00,,,0.00,Wunderground v.1.15,2013-07-28 16:05:00,
2013-07-28 12:07:00,70.0,65.3,29.92,NE,53,0.0,4.0,85,0.00,,,0.00,Wunderground v.1.15,2013-07-28 16:07:00,
2013-07-28 12:10:00,69.9,65.2,29.92,South,190,0.0,1.0,85,0.00,,,0.00,Wunderground v.1.15,2013-07-28 16:10:00,
2013-07-28 12:11:00,69.8,65.1,29.92,East,89,0.0,1.0,85,0.00,,,0.00,Wunderground v.1.15,2013-07-28 16:11:00,
2013-07-28 12:12:00,69.8,65.1,29.92,ENE,63,0.0,1.0,85,0.00,,,0.00,Wunderground v.1.15,2013-07-28 16:12:00,
2013-07-28 12:13:00,69.8,65.1,29.92,SE,146,0.0,1.0,85,0.00,,,0.00,Wunderground v.1.15,2013-07-28 16:13:00,
2013-07-28 12:14:00,69.8,65.1,29.92,NE,38,1.0,3.0,85,0.00,,,0.00,Wunderground v.1.15,2013-07-28 16:14:00,
2013-07-28 12:16:00,69.8,65.1,29.92,ESE,108,1.0,4.0,85,0.00,,,0.00,Wunderground v.1.15,2013-07-28 16:16:00,
2013-07-28 12:17:00,69.8,65.1,29.92,East,100,0.0,4.0,85,0.00,,,0.00,Wunderground v.1.15,2013-07-28 16:17:00,
2013-07-28 12:19:00,69.9,65.5,29.92,ESE,105,4.0,5.0,86,0.00,,,0.00,Wunderground v.1.15,2013-07-28 16:19:00,
2013-07-28 12:21:00,69.9,65.2,29.92,SSE,148,0.0,4.0,85,0.00,,,0.00,Wunderground v.1.15,2013-07-28 16:21:00,
2013-07-28 12:23:00,70.0,65.6,29.92,ENE,70,0.0,4.0,86,0.00,,,0.00,Wunderground v.1.15,2013-07-28 16:23:00,
2013-07-28 12:24:00,70.0,65.6,29.92,East,100,0.0,4.0,86,0.00,,,0.00,Wunderground v.1.15,2013-07-28 16:24:00,
2013-07-28 12:25:00,70.1,65.7,29.92,NNE,20,1.0,4.0,86,0.00,,,0.00,Wunderground v.1.15,2013-07-28 16:25:00,
2013-07-28 12:26:00,70.2,65.5,29.92,SSW,196,0.0,5.0,85,0.00,,,0.00,Wunderground v.1.15,2013-07-28 16:26:00,
2013-07-28 12:27:00,70.2,65.1,29.92,SW,219,0.0,5.0,84,0.00,,,0.00,Wunderground v.1.15,2013-07-28 16:27:00,
2013-07-28 12:29:00,70.2,65.5,29.92,ENE,64,1.0,5.0,85,0.00,,,0.00,Wunderground v.1.15,2013-07-28 16:29:00,
2013-07-28 12:30:00,70.3,65.6,29.92,WSW,257,0.0,1.0,85,0.00,,,0.00,Wunderground v.1.15,2013-07-28 16:30:00,
2013-07-28 12:31:00,70.4,66.0,29.92,NNE,23,3.0,5.0,86,0.00,,,0.00,Wunderground v.1.15,2013-07-28 16:31:00,
2013-07-28 12:32:00,70.4,65.7,29.92,NNE,17,1.0,5.0,85,0.00,,,0.00,Wunderground v.1.15,2013-07-28 16:32:00,
2013-07-28 12:34:00,70.4,65.0,29.92,SSW,209,3.0,5.0,83,0.00,,,0.00,Wunderground v.1.15,2013-07-28 16:34:00,
2013-07-28 12:35:00,70.4,65.0,29.92,SSW,206,3.0,5.0,83,0.00,,,0.00,Wunderground v.1.15,2013-07-28 16:35:00,
2013-07-28 12:37:00,70.3,64.9,29.92,SW,225,2.0,6.0,83,0.00,,,0.00,Wunderground v.1.15,2013-07-28 16:37:00,
2013-07-28 12:38:00,70.2,64.8,29.92,SW,215,0.0,6.0,83,0.00,,,0.00,Wunderground v.1.15,2013-07-28 16:38:00,
2013-07-28 12:40:00,70.3,66.2,29.92,NE,44,0.0,6.0,87,0.00,,,0.00,Wunderground v.1.15,2013-07-28 16:40:00,
2013-07-28 12:42:00,70.3,65.2,29.92,South,189,1.0,9.0,84,0.00,,,0.00,Wunderground v.1.15,2013-07-28 16:42:00,
2013-07-28 12:43:00,70.3,65.2,29.92,SSE,164,0.0,9.0,84,0.00,,,0.00,Wunderground v.1.15,2013-07-28 16:43:00,
2013-07-28 12:45:00,70.2,65.5,29.92,East,84,0.0,9.0,85,0.00,,,0.00,Wunderground v.1.15,2013-07-28 16:45:00,
2013-07-28 12:47:00,70.2,64.8,29.92,SSW,193,2.0,9.0,83,0.00,,,0.00,Wunderground v.1.15,2013-07-28 16:47:00,
2013-07-28 12:48:00,70.1,65.0,29.92,South,190,0.0,9.0,84,0.00,,,0.00,Wunderground v.1.15,2013-07-28 16:48:00,
2013-07-28 12:50:00,70.2,65.5,29.92,SE,128,1.0,2.0,85,0.00,,,0.00,Wunderground v.1.15,2013-07-28 16:50:00,
2013-07-28 12:51:00,70.2,65.5,29.92,ESE,109,0.0,2.0,85,0.00,,,0.00,Wunderground v.1.15,2013-07-28 16:51:00,
2013-07-28 12:52:00,70.3,65.6,29.92,ESE,119,2.0,5.0,85,0.00,,,0.00,Wunderground v.1.15,2013-07-28 16:52:00,
2013-07-28 12:54:00,70.3,65.6,29.92,NNE,24,0.0,5.0,85,0.00,,,0.00,Wunderground v.1.15,2013-07-28 16:54:00,
2013-07-28 12:56:00,70.4,65.3,29.92,WNW,288,1.0,5.0,84,0.00,,,0.00,Wunderground v.1.15,2013-07-28 16:56:00,
2013-07-28 12:57:00,70.6,65.9,29.92,NNE,30,3.0,5.0,85,0.00,,,0.00,Wunderground v.1.15,2013-07-28 16:57:00,
2013-07-28 12:58:00,70.6,65.9,29.92,NNW,339,2.0,5.0,85,0.00,,,0.00,Wunderground v.1.15,2013-07-28 16:58:00,
2013-07-28 13:00:00,70.6,65.5,29.92,NNE,29,2.0,7.0,84,0.00,,,0.00,Wunderground v.1.15,2013-07-28 17:00:00,
2013-07-28 13:01:00,70.6,65.2,29.92,NNE,13,0.0,5.0,83,0.00,,,0.00,Wunderground v.1.15,2013-07-28 17:01:00,
2013-07-28 13:02:00,70.6,64.8,29.92,NE,42,0.0,5.0,82,0.00,,,0.00,Wunderground v.1.15,2013-07-28 17:02:00,
2013-07-28 13:03:00,70.6,65.2,29.92,East,96,0.0,5.0,83,0.00,,,0.00,Wunderground v.1.15,2013-07-28 17:03:00,
2013-07-28 13:06:00,70.6,65.5,29.92,ENE,61,0.0,5.0,84,0.00,,,0.00,Wunderground v.1.15,2013-07-28 17:06:00,
2013-07-28 13:07:00,70.7,65.6,29.92,ESE,107,1.0,5.0,84,0.00,,,0.00,Wunderground v.1.15,2013-07-28 17:07:00,
2013-07-28 13:08:00,70.7,65.6,29.92,East,87,0.0,5.0,84,0.00,,,0.00,Wunderground v.1.15,2013-07-28 17:08:00,
2013-07-28 13:12:00,70.8,65.4,29.93,SE,144,0.0,3.0,83,0.00,,,0.00,Wunderground v.1.15,2013-07-28 17:12:00,
2013-07-28 13:13:00,70.8,65.4,29.93,SE,125,0.0,3.0,83,0.00,,,0.00,Wunderground v.1.15,2013-07-28 17:13:00,
2013-07-28 13:17:00,71.0,65.6,29.92,North,5,2.0,6.0,83,0.00,,,0.00,Wunderground v.1.15,2013-07-28 17:17:00,
2013-07-28 13:18:00,71.1,65.3,29.92,NE,36,0.0,6.0,82,0.00,,,0.00,Wunderground v.1.15,2013-07-28 17:18:00,
2013-07-28 13:19:00,71.1,65.3,29.92,NE,36,0.0,6.0,82,0.00,,,0.00,Wunderground v.1.15,2013-07-28 17:19:00,
2013-07-28 13:22:00,71.5,65.7,29.92,SSW,198,0.0,5.0,82,0.00,,,0.00,Wunderground v.1.15,2013-07-28 17:22:00,
2013-07-28 13:23:00,71.5,66.4,29.92,ESE,118,0.0,5.0,84,0.00,,,0.00,Wunderground v.1.15,2013-07-28 17:23:00,
2013-07-28 13:24:00,71.7,65.9,29.92,ENE,74,0.0,5.0,82,0.00,,,0.00,Wunderground v.1.15,2013-07-28 17:24:00,
2013-07-28 13:27:00,72.0,65.5,29.92,ESE,113,0.0,5.0,80,0.00,,,0.00,Wunderground v.1.15,2013-07-28 17:27:00,
2013-07-28 13:28:00,72.0,65.5,29.92,NNE,23,1.0,5.0,80,0.00,,,0.00,Wunderground v.1.15,2013-07-28 17:28:00,
2013-07-28 13:29:00,72.1,65.9,29.92,NW,326,1.0,5.0,81,0.00,,,0.00,Wunderground v.1.15,2013-07-28 17:29:00,
2013-07-28 13:30:00,72.1,65.2,29.92,WSW,237,2.0,4.0,79,0.00,,,0.00,Wunderground v.1.15,2013-07-28 17:30:00,
2013-07-28 13:33:00,72.1,65.6,29.92,North,5,1.0,4.0,80,0.00,,,0.00,Wunderground v.1.15,2013-07-28 17:33:00,
2013-07-28 13:34:00,72.1,65.2,29.93,ESE,113,0.0,4.0,79,0.00,,,0.00,Wunderground v.1.15,2013-07-28 17:34:00,
2013-07-28 13:35:00,72.1,65.6,29.93,ESE,113,0.0,4.0,80,0.00,,,0.00,Wunderground v.1.15,2013-07-28 17:35:00,
2013-07-28 13:38:00,72.1,65.2,29.93,East,84,1.0,4.0,79,0.00,,,0.00,Wunderground v.1.15,2013-07-28 17:38:00,
2013-07-28 13:39:00,72.1,65.2,29.93,ESE,111,0.0,4.0,79,0.00,,,0.00,Wunderground v.1.15,2013-07-28 17:39:00,
2013-07-28 13:40:00,72.1,64.9,29.93,East,91,0.0,1.0,78,0.00,,,0.00,Wunderground v.1.15,2013-07-28 17:40:00,
2013-07-28 13:43:00,72.2,66.7,29.93,WSW,249,1.0,2.0,83,0.00,,,0.00,Wunderground v.1.15,2013-07-28 17:43:00,
2013-07-28 13:44:00,72.2,66.7,29.93,WSW,249,1.0,2.0,83,0.00,,,0.00,Wunderground v.1.15,2013-07-28 17:44:00,
2013-07-28 13:45:00,72.3,65.1,29.93,ESE,117,0.0,4.0,78,0.00,,,0.00,Wunderground v.1.15,2013-07-28 17:45:00,
2013-07-28 13:49:00,72.2,64.6,29.93,SSW,198,6.0,6.0,77,0.00,,,0.00,Wunderground v.1.15,2013-07-28 17:49:00,
2013-07-28 13:51:00,71.9,64.7,29.93,NNE,15,0.0,1.0,78,0.00,,,0.00,Wunderground v.1.15,2013-07-28 17:51:00,
2013-07-28 13:54:00,71.9,65.4,29.93,East,98,0.0,2.0,80,0.00,,,0.00,Wunderground v.1.15,2013-07-28 17:54:00,
2013-07-28 13:55:00,71.9,65.4,29.93,East,98,0.0,2.0,80,0.00,,,0.00,Wunderground v.1.15,2013-07-28 17:55:00,
2013-07-28 13:56:00,71.8,64.9,29.93,East,86,5.0,5.0,79,0.00,,,0.00,Wunderground v.1.15,2013-07-28 17:56:00,
2013-07-28 13:57:00,71.8,64.9,29.93,NE,34,3.0,5.0,79,0.00,,,0.00,Wunderground v.1.15,2013-07-28 17:57:00,
2013-07-28 13:59:00,71.7,64.5,29.94,SE,145,0.0,5.0,78,0.00,,,0.00,Wunderground v.1.15,2013-07-28 17:59:00,
2013-07-28 14:00:00,71.7,65.2,29.93,SSW,195,0.0,5.0,80,0.00,,,0.00,Wunderground v.1.15,2013-07-28 18:00:00,
2013-07-28 14:02:00,71.5,64.6,29.94,NE,51,0.0,1.0,79,0.00,,,0.00,Wunderground v.1.15,2013-07-28 18:02:00,
2013-07-28 14:03:00,71.5,64.6,29.94,East,90,0.0,1.0,79,0.00,,,0.00,Wunderground v.1.15,2013-07-28 18:03:00,
2013-07-28 14:04:00,71.4,64.9,29.93,ESE,109,0.0,1.0,80,0.00,,,0.00,Wunderground v.1.15,2013-07-28 18:04:00,
2013-07-28 14:05:00,71.4,64.9,29.94,ESE,103,4.0,4.0,80,0.00,,,0.00,Wunderground v.1.15,2013-07-28 18:05:00,
2013-07-28 14:07:00,71.2,64.0,29.93,ESE,103,0.0,4.0,78,0.00,,,0.00,Wunderground v.1.15,2013-07-28 18:07:00,
2013-07-28 14:08:00,71.2,64.4,29.93,SSE,148,0.0,4.0,79,0.00,,,0.00,Wunderground v.1.15,2013-07-28 18:08:00,
2013-07-28 14:09:00,71.2,64.7,29.93,SSE,148,0.0,4.0,80,0.00,,,0.00,Wunderground v.1.15,2013-07-28 18:09:00,
2013-07-28 14:10:00,71.1,64.6,29.93,SSE,148,0.0,0.0,80,0.00,,,0.00,Wunderground v.1.15,2013-07-28 18:10:00,
2013-07-28 14:13:00,71.1,65.3,29.93,East,99,0.0,1.0,82,0.00,,,0.00,Wunderground v.1.15,2013-07-28 18:13:00,
2013-07-28 14:14:00,71.1,65.0,29.93,SE,130,0.0,2.0,81,0.00,,,0.00,Wunderground v.1.15,2013-07-28 18:14:00,
2013-07-28 14:15:00,71.1,65.0,29.93,SE,130,0.0,2.0,81,0.00,,,0.00,Wunderground v.1.15,2013-07-28 18:15:00,
2013-07-28 14:18:00,71.1,65.0,29.94,ESE,107,0.0,4.0,81,0.00,,,0.00,Wunderground v.1.15,2013-07-28 18:18:00,
2013-07-28 14:19:00,71.1,65.0,29.94,ESE,107,0.0,4.0,81,0.00,,,0.00,Wunderground v.1.15,2013-07-28 18:19:00,
2013-07-28 14:20:00,71.1,65.3,29.94,ESE,107,0.0,0.0,82,0.00,,,0.00,Wunderground v.1.15,2013-07-28 18:20:00,
2013-07-28 14:21:00,71.1,65.3,29.93,ESE,107,0.0,1.0,82,0.00,,,0.00,Wunderground v.1.15,2013-07-28 18:21:00,
2013-07-28 14:24:00,70.9,64.8,29.93,NE,54,1.0,4.0,81,0.00,,,0.00,Wunderground v.1.15,2013-07-28 18:24:00,
2013-07-28 14:25:00,70.8,64.3,29.93,ESE,103,0.0,5.0,80,0.00,,,0.00,Wunderground v.1.15,2013-07-28 18:25:00,
2013-07-28 14:26:00,70.8,64.0,29.93,ESE,105,0.0,5.0,79,0.00,,,0.00,Wunderground v.1.15,2013-07-28 18:26:00,
2013-07-28 14:28:00,70.7,64.2,29.93,NNE,19,0.0,5.0,80,0.00,,,0.00,Wunderground v.1.15,2013-07-28 18:28:00,
2013-07-28 14:29:00,70.7,64.6,29.93,NNE,19,0.0,5.0,81,0.00,,,0.00,Wunderground v.1.15,2013-07-28 18:29:00,
2013-07-28 14:30:00,70.7,64.9,29.93,NNE,19,0.0,5.0,82,0.00,,,0.00,Wunderground v.1.15,2013-07-28 18:30:00,
2013-07-28 14:31:00,70.7,65.3,29.93,NNE,19,0.0,0.0,83,0.00,,,0.00,Wunderground v.1.15,2013-07-28 18:31:00,
2013-07-28 14:32:00,70.7,64.9,29.93,East,80,1.0,3.0,82,0.00,,,0.00,Wunderground v.1.15,2013-07-28 18:32:00,
2013-07-28 14:33:00,70.6,65.2,29.93,East,92,0.0,3.0,83,0.00,,,0.00,Wunderground v.1.15,2013-07-28 18:33:00,
2013-07-28 14:34:00,70.6,65.2,29.93,East,92,0.0,3.0,83,0.00,,,0.00,Wunderground v.1.15,2013-07-28 18:34:00,
2013-07-28 14:35:00,70.6,65.5,29.93,East,84,0.0,3.0,84,0.00,,,0.00,Wunderground v.1.15,2013-07-28 18:35:00,
2013-07-28 14:37:00,70.6,64.8,29.93,East,98,0.0,3.0,82,0.00,,,0.00,Wunderground v.1.15,2013-07-28 18:37:00,
2013-07-28 14:38:00,70.5,64.7,29.93,East,98,0.0,3.0,82,0.00,,,0.00,Wunderground v.1.15,2013-07-28 18:38:00,
2013-07-28 14:39:00,70.5,65.1,29.93,East,98,0.0,3.0,83,0.00,,,0.00,Wunderground v.1.15,2013-07-28 18:39:00,
2013-07-28 14:40:00,70.4,65.0,29.93,East,97,0.0,1.0,83,0.00,,,0.00,Wunderground v.1.15,2013-07-28 18:40:00,
2013-07-28 14:42:00,70.3,64.9,29.93,East,84,0.0,1.0,83,0.00,,,0.00,Wunderground v.1.15,2013-07-28 18:42:00,
2013-07-28 14:44:00,70.3,65.2,29.93,ENE,71,0.0,1.0,84,0.00,,,0.00,Wunderground v.1.15,2013-07-28 18:44:00,
2013-07-28 14:45:00,70.2,64.8,29.93,SE,127,1.0,1.0,83,0.00,,,0.00,Wunderground v.1.15,2013-07-28 18:45:00,
2013-07-28 14:46:00,70.2,64.4,29.94,SE,127,0.0,1.0,82,0.00,,,0.00,Wunderground v.1.15,2013-07-28 18:46:00,
2013-07-28 14:47:00,70.1,64.7,29.93,SE,127,0.0,1.0,83,0.00,,,0.00,Wunderground v.1.15,2013-07-28 18:47:00,
2013-07-28 14:49:00,70.1,65.0,29.93,SE,127,0.0,1.0,84,0.00,,,0.00,Wunderground v.1.15,2013-07-28 18:49:00,
2013-07-28 14:50:00,70.1,64.7,29.93,SE,127,0.0,0.0,83,0.00,,,0.00,Wunderground v.1.15,2013-07-28 18:50:00,
2013-07-28 14:51:00,70.0,64.6,29.93,NE,52,0.0,1.0,83,0.00,,,0.00,Wunderground v.1.15,2013-07-28 18:51:00,
2013-07-28 14:52:00,70.0,63.9,29.93,NE,51,0.0,1.0,81,0.00,,,0.00,Wunderground v.1.15,2013-07-28 18:52:00,
2013-07-28 14:54:00,69.8,64.4,29.94,East,79,2.0,2.0,83,0.00,,,0.00,Wunderground v.1.15,2013-07-28 18:54:00,
2013-07-28 14:55:00,69.7,63.6,29.93,East,92,0.0,2.0,81,0.00,,,0.00,Wunderground v.1.15,2013-07-28 18:55:00,
2013-07-28 14:57:00,69.6,64.2,29.93,East,91,0.0,2.0,83,0.00,,,0.00,Wunderground v.1.15,2013-07-28 18:57:00,
2013-07-28 14:58:00,69.5,64.1,29.93,East,91,0.0,2.0,83,0.00,,,0.01,Wunderground v.1.15,2013-07-28 18:58:00,
2013-07-28 14:59:00,69.5,64.1,29.93,SSE,150,1.0,2.0,83,0.00,,,0.01,Wunderground v.1.15,2013-07-28 18:59:00,
2013-07-28 15:00:00,69.3,64.3,29.93,East,93,0.0,1.0,84,0.00,,,0.01,Wunderground v.1.15,2013-07-28 19:00:00,
2013-07-28 15:02:00,69.2,64.5,29.93,ESE,107,1.0,1.0,85,0.00,,,0.01,Wunderground v.1.15,2013-07-28 19:02:00,
2013-07-28 15:03:00,69.1,63.7,29.93,East,82,3.0,3.0,83,0.15,,,0.02,Wunderground v.1.15,2013-07-28 19:03:00,
2013-07-28 15:04:00,68.9,64.2,29.93,East,82,1.0,3.0,85,0.15,,,0.02,Wunderground v.1.15,2013-07-28 19:04:00,
2013-07-28 15:05:00,68.7,64.0,29.93,East,84,0.0,4.0,85,0.15,,,0.02,Wunderground v.1.15,2013-07-28 19:05:00,
2013-07-28 15:07:00,68.5,64.5,29.93,ESE,104,2.0,4.0,87,0.10,,,0.02,Wunderground v.1.15,2013-07-28 19:07:00,
2013-07-28 15:08:00,68.5,64.1,29.93,ENE,77,0.0,4.0,86,0.10,,,0.02,Wunderground v.1.15,2013-07-28 19:08:00,
2013-07-28 15:09:00,68.3,63.9,29.93,South,188,0.0,4.0,86,0.08,,,0.02,Wunderground v.1.15,2013-07-28 19:09:00,
2013-07-28 15:10:00,68.1,64.4,29.94,South,188,0.0,1.0,88,0.07,,,0.02,Wunderground v.1.15,2013-07-28 19:10:00,
2013-07-28 15:13:00,68.0,64.6,29.93,South,188,0.0,1.0,89,0.05,,,0.02,Wunderground v.1.15,2013-07-28 19:13:00,
2013-07-28 15:14:00,67.9,64.5,29.93,SSE,162,1.0,1.0,89,0.05,,,0.02,Wunderground v.1.15,2013-07-28 19:14:00,
2013-07-28 15:16:00,67.8,64.4,29.93,ESE,120,0.0,1.0,89,0.05,,,0.03,Wunderground v.1.15,2013-07-28 19:16:00,
2013-07-28 15:18:00,67.7,64.7,29.93,NE,41,1.0,1.0,90,0.05,,,0.03,Wunderground v.1.15,2013-07-28 19:18:00,
2013-07-28 15:19:00,67.6,64.6,29.93,NE,55,0.0,1.0,90,0.05,,,0.03,Wunderground v.1.15,2013-07-28 19:19:00,
2013-07-28 15:20:00,67.6,64.2,29.93,NE,49,0.0,0.0,89,0.05,,,0.03,Wunderground v.1.15,2013-07-28 19:20:00,
2013-07-28 15:22:00,67.4,64.4,29.93,ESE,116,0.0,2.0,90,0.05,,,0.03,Wunderground v.1.15,2013-07-28 19:22:00,
2013-07-28 15:23:00,67.4,64.7,29.93,NE,42,1.0,3.0,91,0.05,,,0.03,Wunderground v.1.15,2013-07-28 19:23:00,
2013-07-28 15:24:00,67.4,64.4,29.93,NE,42,0.0,3.0,90,0.05,,,0.03,Wunderground v.1.15,2013-07-28 19:24:00,
2013-07-28 15:26:00,67.4,64.4,29.93,NE,55,1.0,3.0,90,0.05,,,0.03,Wunderground v.1.15,2013-07-28 19:26:00,
2013-07-28 15:27:00,67.4,64.7,29.93,ENE,61,0.0,3.0,91,0.05,,,0.03,Wunderground v.1.15,2013-07-28 19:27:00,
2013-07-28 15:29:00,67.4,65.0,29.93,ENE,67,1.0,3.0,92,0.04,,,0.03,Wunderground v.1.15,2013-07-28 19:29:00,
2013-07-28 15:32:00,67.5,65.1,29.93,ESE,114,0.0,4.0,92,0.00,,,0.03,Wunderground v.1.15,2013-07-28 19:32:00,
2013-07-28 15:34:00,67.6,65.2,29.93,ENE,71,0.0,4.0,92,0.00,,,0.03,Wunderground v.1.15,2013-07-28 19:34:00,
2013-07-28 15:36:00,67.7,65.3,29.93,ESE,119,0.0,4.0,92,0.00,,,0.03,Wunderground v.1.15,2013-07-28 19:36:00,
2013-07-28 15:37:00,67.7,65.0,29.93,ESE,119,0.0,4.0,91,0.00,,,0.03,Wunderground v.1.15,2013-07-28 19:37:00,
2013-07-28 15:39:00,67.8,64.8,29.93,East,96,0.0,4.0,90,0.00,,,0.03,Wunderground v.1.15,2013-07-28 19:39:00,
2013-07-28 15:40:00,67.8,64.8,29.93,East,96,0.0,4.0,90,0.00,,,0.03,Wunderground v.1.15,2013-07-28 19:40:00,
2013-07-28 15:42:00,68.0,65.6,29.93,East,93,0.0,1.0,92,0.00,,,0.03,Wunderground v.1.15,2013-07-28 19:42:00,
2013-07-28 15:45:00,68.3,65.9,29.93,East,93,0.0,1.0,92,0.00,,,0.03,Wunderground v.1.15,2013-07-28 19:45:00,
2013-07-28 15:47:00,68.3,65.3,29.93,NE,46,1.0,2.0,90,0.00,,,0.03,Wunderground v.1.15,2013-07-28 19:47:00,
2013-07-28 15:48:00,68.4,65.7,29.93,NE,53,0.0,2.0,91,0.00,,,0.03,Wunderground v.1.15,2013-07-28 19:48:00,
2013-07-28 15:50:00,68.4,65.0,29.92,NE,40,0.0,0.0,89,0.00,,,0.03,Wunderground v.1.15,2013-07-28 19:50:00,
2013-07-28 15:51:00,68.4,65.0,29.93,NE,40,0.0,0.0,89,0.00,,,0.03,Wunderground v.1.15,2013-07-28 19:51:00,
2013-07-28 15:52:00,68.4,65.4,29.93,NE,43,0.0,0.0,90,0.00,,,0.03,Wunderground v.1.15,2013-07-28 19:52:00,
2013-07-28 15:54:00,68.4,65.0,29.93,North,11,0.0,1.0,89,0.00,,,0.03,Wunderground v.1.15,2013-07-28 19:54:00,
2013-07-28 15:55:00,68.4,64.7,29.93,North,11,0.0,1.0,88,0.00,,,0.03,Wunderground v.1.15,2013-07-28 19:55:00,
2013-07-28 15:56:00,68.3,64.6,29.93,North,11,0.0,1.0,88,0.00,,,0.03,Wunderground v.1.15,2013-07-28 19:56:00,
2013-07-28 15:57:00,68.3,64.6,29.93,North,11,0.0,1.0,88,0.00,,,0.03,Wunderground v.1.15,2013-07-28 19:57:00,
2013-07-28 15:58:00,68.3,64.9,29.93,North,11,0.0,1.0,89,0.00,,,0.03,Wunderground v.1.15,2013-07-28 19:58:00,
2013-07-28 15:59:00,68.2,64.5,29.93,NNE,32,0.0,1.0,88,0.00,,,0.03,Wunderground v.1.15,2013-07-28 19:59:00,
2013-07-28 16:01:00,68.1,64.1,29.93,ENE,65,0.0,2.0,87,0.00,,,0.03,Wunderground v.1.15,2013-07-28 20:01:00,
2013-07-28 16:02:00,68.1,64.1,29.93,ENE,65,0.0,2.0,87,0.00,,,0.03,Wunderground v.1.15,2013-07-28 20:02:00,
2013-07-28 16:03:00,68.0,64.3,29.93,ENE,65,0.0,2.0,88,0.00,,,0.03,Wunderground v.1.15,2013-07-28 20:03:00,
2013-07-28 16:04:00,67.9,63.9,29.93,ENE,65,0.0,2.0,87,0.00,,,0.03,Wunderground v.1.15,2013-07-28 20:04:00,
2013-07-28 16:06:00,67.8,63.8,29.93,ENE,65,0.0,2.0,87,0.00,,,0.03,Wunderground v.1.15,2013-07-28 20:06:00,
2013-07-28 16:07:00,67.8,63.8,29.93,ENE,65,0.0,2.0,87,0.00,,,0.03,Wunderground v.1.15,2013-07-28 20:07:00,
2013-07-28 16:08:00,67.7,64.3,29.93,ENE,65,0.0,2.0,89,0.00,,,0.03,Wunderground v.1.15,2013-07-28 20:08:00,
2013-07-28 16:09:00,67.7,64.3,29.93,ENE,65,0.0,2.0,89,0.00,,,0.03,Wunderground v.1.15,2013-07-28 20:09:00,
2013-07-28 16:13:00,67.5,64.1,29.93,ENE,65,0.0,0.0,89,0.00,,,0.03,Wunderground v.1.15,2013-07-28 20:13:00,
2013-07-28 16:14:00,67.5,64.5,29.93,ENE,65,1.0,1.0,90,0.00,,,0.03,Wunderground v.1.15,2013-07-28 20:14:00,
2013-07-28 16:18:00,67.3,64.3,29.93,ENE,65,0.0,2.0,90,0.00,,,0.04,Wunderground v.1.15,2013-07-28 20:18:00,
2013-07-28 16:19:00,67.3,63.9,29.93,ENE,65,0.0,2.0,89,0.00,,,0.04,Wunderground v.1.15,2013-07-28 20:19:00,
2013-07-28 16:20:00,67.3,64.3,29.93,ENE,65,0.0,0.0,90,0.00,,,0.04,Wunderground v.1.15,2013-07-28 20:20:00,
2013-07-28 16:23:00,67.2,64.2,29.93,East,101,0.0,1.0,90,0.00,,,0.04,Wunderground v.1.15,2013-07-28 20:23:00,
2013-07-28 16:24:00,67.2,64.2,29.93,ESE,102,0.0,1.0,90,0.00,,,0.04,Wunderground v.1.15,2013-07-28 20:24:00,
2013-07-28 16:25:00,67.1,63.7,29.92,East,82,0.0,3.0,89,0.00,,,0.04,Wunderground v.1.15,2013-07-28 20:25:00,
2013-07-28 16:28:00,67.1,64.1,29.92,East,82,0.0,3.0,90,0.00,,,0.04,Wunderground v.1.15,2013-07-28 20:28:00,
2013-07-28 16:29:00,67.1,64.4,29.92,ESE,119,1.0,3.0,91,0.00,,,0.04,Wunderground v.1.15,2013-07-28 20:29:00,
2013-07-28 16:31:00,67.0,64.0,29.92,SE,127,0.0,0.0,90,0.04,,,0.05,Wunderground v.1.15,2013-07-28 20:31:00,
2013-07-28 16:33:00,67.0,64.3,29.92,SE,127,0.0,0.0,91,0.04,,,0.05,Wunderground v.1.15,2013-07-28 20:33:00,
2013-07-28 16:34:00,66.9,64.2,29.92,SE,127,0.0,0.0,91,0.04,,,0.05,Wunderground v.1.15,2013-07-28 20:34:00,
2013-07-28 16:35:00,67.0,64.6,29.92,SE,127,0.0,0.0,92,0.04,,,0.05,Wunderground v.1.15,2013-07-28 20:35:00,
2013-07-28 16:36:00,67.0,64.3,29.92,SE,127,0.0,0.0,91,0.04,,,0.05,Wunderground v.1.15,2013-07-28 20:36:00,
2013-07-28 16:39:00,66.9,64.2,29.92,SE,127,0.0,1.0,91,0.04,,,0.05,Wunderground v.1.15,2013-07-28 20:39:00,
2013-07-28 16:40:00,66.9,64.5,29.92,SE,127,0.0,0.0,92,0.04,,,0.05,Wunderground v.1.15,2013-07-28 20:40:00,
2013-07-28 16:42:00,66.9,64.5,29.92,SE,127,0.0,0.0,92,0.04,,,0.05,Wunderground v.1.15,2013-07-28 20:42:00,
2013-07-28 16:44:00,66.9,64.5,29.92,SE,127,0.0,0.0,92,0.04,,,0.05,Wunderground v.1.15,2013-07-28 20:44:00,
2013-07-28 16:47:00,66.9,64.8,29.92,SE,127,0.0,0.0,93,0.00,,,0.05,Wunderground v.1.15,2013-07-28 20:47:00,
2013-07-28 16:49:00,66.8,64.7,29.92,East,91,0.0,1.0,93,0.00,,,0.05,Wunderground v.1.15,2013-07-28 20:49:00,
2013-07-28 16:50:00,66.8,64.7,29.92,East,88,0.0,1.0,93,0.00,,,0.05,Wunderground v.1.15,2013-07-28 20:50:00,
2013-07-28 16:52:00,66.8,64.7,29.92,ENE,58,0.0,2.0,93,0.00,,,0.05,Wunderground v.1.15,2013-07-28 20:52:00,
2013-07-28 16:54:00,66.8,65.0,29.92,ENE,58,1.0,2.0,94,0.00,,,0.05,Wunderground v.1.15,2013-07-28 20:54:00,
2013-07-28 16:55:00,66.9,65.1,29.92,NE,45,3.0,3.0,94,0.00,,,0.05,Wunderground v.1.15,2013-07-28 20:55:00,
2013-07-28 16:57:00,66.9,65.1,29.92,NE,44,0.0,4.0,94,0.00,,,0.05,Wunderground v.1.15,2013-07-28 20:57:00,
2013-07-28 16:59:00,67.0,65.2,29.92,ENE,69,0.0,4.0,94,0.00,,,0.05,Wunderground v.1.15,2013-07-28 20:59:00,
2013-07-28 17:00:00,67.0,65.2,29.92,ENE,63,1.0,1.0,94,0.00,,,0.05,Wunderground v.1.15,2013-07-28 21:00:00,
2013-07-28 17:03:00,67.1,65.3,29.92,ENE,63,0.0,1.0,94,0.00,,,0.05,Wunderground v.1.15,2013-07-28 21:03:00,
2013-07-28 17:04:00,67.0,64.9,29.92,East,95,0.0,4.0,93,0.00,,,0.05,Wunderground v.1.15,2013-07-28 21:04:00,
2013-07-28 17:05:00,67.0,65.2,29.92,East,93,1.0,4.0,94,0.00,,,0.05,Wunderground v.1.15,2013-07-28 21:05:00,
2013-07-28 17:08:00,67.1,65.0,29.92,East,84,0.0,4.0,93,0.00,,,0.05,Wunderground v.1.15,2013-07-28 21:08:00,
2013-07-28 17:10:00,67.0,64.9,29.92,East,84,0.0,0.0,93,0.00,,,0.05,Wunderground v.1.15,2013-07-28 21:10:00,
2013-07-28 17:13:00,67.1,65.3,29.92,East,84,0.0,2.0,94,0.00,,,0.05,Wunderground v.1.15,2013-07-28 21:13:00,
2013-07-28 17:14:00,67.1,65.0,29.92,East,84,0.0,2.0,93,0.00,,,0.05,Wunderground v.1.15,2013-07-28 21:14:00,
2013-07-28 17:15:00,67.2,65.1,29.92,East,84,0.0,2.0,93,0.00,,,0.05,Wunderground v.1.15,2013-07-28 21:15:00,
2013-07-28 17:16:00,67.2,65.1,29.92,East,84,0.0,2.0,93,0.00,,,0.05,Wunderground v.1.15,2013-07-28 21:16:00,
2013-07-28 17:18:00,67.2,65.4,29.92,East,84,0.0,2.0,94,0.00,,,0.05,Wunderground v.1.15,2013-07-28 21:18:00,
2013-07-28 17:19:00,67.2,65.4,29.92,East,84,0.0,2.0,94,0.00,,,0.05,Wunderground v.1.15,2013-07-28 21:19:00,
2013-07-28 17:21:00,67.3,64.9,29.91,East,84,0.0,0.0,92,0.00,,,0.05,Wunderground v.1.15,2013-07-28 21:21:00,
2013-07-28 17:23:00,67.4,65.3,29.91,East,84,0.0,0.0,93,0.00,,,0.05,Wunderground v.1.15,2013-07-28 21:23:00,
2013-07-28 17:24:00,67.4,65.3,29.91,East,84,0.0,0.0,93,0.00,,,0.05,Wunderground v.1.15,2013-07-28 21:24:00,
2013-07-28 17:26:00,67.3,64.6,29.91,East,89,0.0,1.0,91,0.00,,,0.05,Wunderground v.1.15,2013-07-28 21:26:00,
2013-07-28 17:27:00,67.3,64.6,29.91,East,89,0.0,1.0,91,0.00,,,0.05,Wunderground v.1.15,2013-07-28 21:27:00,
2013-07-28 17:29:00,67.3,64.3,29.91,East,89,0.0,1.0,90,0.00,,,0.05,Wunderground v.1.15,2013-07-28 21:29:00,
2013-07-28 17:31:00,67.4,65.0,29.91,East,89,0.0,0.0,92,0.00,,,0.05,Wunderground v.1.15,2013-07-28 21:31:00,
2013-07-28 17:33:00,67.4,65.0,29.91,East,89,0.0,0.0,92,0.00,,,0.05,Wunderground v.1.15,2013-07-28 21:33:00,
2013-07-28 17:34:00,67.3,64.3,29.91,East,89,0.0,0.0,90,0.00,,,0.05,Wunderground v.1.15,2013-07-28 21:34:00,
2013-07-28 17:36:00,67.2,64.5,29.91,East,89,0.0,0.0,91,0.00,,,0.05,Wunderground v.1.15,2013-07-28 21:36:00,
2013-07-28 17:38:00,67.1,64.1,29.91,East,89,0.0,0.0,90,0.00,,,0.05,Wunderground v.1.15,2013-07-28 21:38:00,
2013-07-28 17:39:00,67.1,64.1,29.91,East,89,0.0,1.0,90,0.00,,,0.05,Wunderground v.1.15,2013-07-28 21:39:00,
2013-07-28 17:40:00,67.1,64.4,29.91,East,89,0.0,0.0,91,0.00,,,0.05,Wunderground v.1.15,2013-07-28 21:40:00,
2013-07-28 17:43:00,67.0,64.0,29.91,East,89,0.0,1.0,90,0.00,,,0.05,Wunderground v.1.15,2013-07-28 21:43:00,
2013-07-28 17:44:00,67.1,64.4,29.91,East,89,1.0,1.0,91,0.00,,,0.05,Wunderground v.1.15,2013-07-28 21:44:00,
2013-07-28 17:45:00,67.1,64.7,29.91,East,89,0.0,1.0,92,0.00,,,0.05,Wunderground v.1.15,2013-07-28 21:45:00,
2013-07-28 17:48:00,67.2,64.8,29.91,East,89,0.0,1.0,92,0.00,,,0.05,Wunderground v.1.15,2013-07-28 21:48:00,
2013-07-28 17:49:00,67.2,65.1,29.91,East,89,0.0,1.0,93,0.00,,,0.05,Wunderground v.1.15,2013-07-28 21:49:00,
2013-07-28 17:50:00,67.2,64.5,29.91,East,89,0.0,0.0,91,0.00,,,0.05,Wunderground v.1.15,2013-07-28 21:50:00,
2013-07-28 17:51:00,67.1,64.4,29.91,East,89,0.0,0.0,91,0.00,,,0.05,Wunderground v.1.15,2013-07-28 21:51:00,
2013-07-28 17:53:00,67.2,64.8,29.91,East,89,0.0,0.0,92,0.00,,,0.05,Wunderground v.1.15,2013-07-28 21:53:00,
2013-07-28 17:54:00,67.2,64.8,29.91,East,89,0.0,0.0,92,0.00,,,0.05,Wunderground v.1.15,2013-07-28 21:54:00,
2013-07-28 17:55:00,67.2,64.8,29.91,East,89,0.0,1.0,92,0.00,,,0.05,Wunderground v.1.15,2013-07-28 21:55:00,
2013-07-28 17:56:00,67.2,64.5,29.91,East,89,0.0,1.0,91,0.00,,,0.05,Wunderground v.1.15,2013-07-28 21:56:00,
2013-07-28 17:58:00,67.2,64.5,29.91,East,89,0.0,1.0,91,0.00,,,0.05,Wunderground v.1.15,2013-07-28 21:58:00,
2013-07-28 17:59:00,67.2,64.5,29.91,East,89,0.0,2.0,91,0.00,,,0.05,Wunderground v.1.15,2013-07-28 21:59:00,
2013-07-28 18:01:00,67.3,64.6,29.91,East,89,0.0,0.0,91,0.00,,,0.05,Wunderground v.1.15,2013-07-28 22:01:00,
2013-07-28 18:02:00,67.3,64.9,29.91,East,89,0.0,0.0,92,0.00,,,0.05,Wunderground v.1.15,2013-07-28 22:02:00,
2013-07-28 18:03:00,67.3,64.3,29.91,East,89,0.0,1.0,90,0.00,,,0.05,Wunderground v.1.15,2013-07-28 22:03:00,
2013-07-28 18:04:00,67.3,64.3,29.91,NE,34,1.0,4.0,90,0.00,,,0.05,Wunderground v.1.15,2013-07-28 22:04:00,
2013-07-28 18:06:00,67.3,63.9,29.91,NE,34,0.0,4.0,89,0.00,,,0.05,Wunderground v.1.15,2013-07-28 22:06:00,
2013-07-28 18:07:00,67.3,63.9,29.91,NE,34,0.0,4.0,89,0.00,,,0.05,Wunderground v.1.15,2013-07-28 22:07:00,
2013-07-28 18:09:00,67.3,63.9,29.91,NE,34,0.0,4.0,89,0.00,,,0.05,Wunderground v.1.15,2013-07-28 22:09:00,
2013-07-28 18:10:00,67.4,64.0,29.91,NE,56,2.0,4.0,89,0.00,,,0.05,Wunderground v.1.15,2013-07-28 22:10:00,
2013-07-28 18:12:00,67.3,63.6,29.91,East,82,0.0,5.0,88,0.00,,,0.05,Wunderground v.1.15,2013-07-28 22:12:00,
2013-07-28 18:14:00,67.3,64.3,29.91,East,82,0.0,5.0,90,0.00,,,0.05,Wunderground v.1.15,2013-07-28 22:14:00,
2013-07-28 18:15:00,67.3,64.3,29.91,East,82,0.0,5.0,90,0.00,,,0.05,Wunderground v.1.15,2013-07-28 22:15:00,
2013-07-28 18:17:00,67.3,63.9,29.91,East,82,1.0,5.0,89,0.00,,,0.05,Wunderground v.1.15,2013-07-28 22:17:00,
2013-07-28 18:20:00,67.2,64.2,29.92,East,82,0.0,5.0,90,0.00,,,0.05,Wunderground v.1.15,2013-07-28 22:20:00,
2013-07-28 18:22:00,67.2,64.2,29.92,East,82,0.0,0.0,90,0.00,,,0.05,Wunderground v.1.15,2013-07-28 22:22:00,
2013-07-28 18:23:00,67.2,64.2,29.92,East,82,0.0,0.0,90,0.00,,,0.05,Wunderground v.1.15,2013-07-28 22:23:00,
2013-07-28 18:25:00,67.2,64.2,29.92,East,82,0.0,0.0,90,0.00,,,0.05,Wunderground v.1.15,2013-07-28 22:25:00,
2013-07-28 18:27:00,67.1,63.7,29.92,East,82,0.0,1.0,89,0.00,,,0.05,Wunderground v.1.15,2013-07-28 22:27:00,
2013-07-28 18:28:00,67.1,64.1,29.92,East,82,0.0,1.0,90,0.00,,,0.05,Wunderground v.1.15,2013-07-28 22:28:00,
2013-07-28 18:29:00,67.1,64.1,29.92,East,82,0.0,1.0,90,0.00,,,0.05,Wunderground v.1.15,2013-07-28 22:29:00,
2013-07-28 18:30:00,67.1,63.7,29.92,East,85,1.0,2.0,89,0.00,,,0.05,Wunderground v.1.15,2013-07-28 22:30:00,
2013-07-28 18:32:00,67.0,63.3,29.92,East,85,0.0,2.0,88,0.00,,,0.05,Wunderground v.1.15,2013-07-28 22:32:00,
2013-07-28 18:34:00,67.0,63.3,29.92,East,85,0.0,2.0,88,0.00,,,0.05,Wunderground v.1.15,2013-07-28 22:34:00,
2013-07-28 18:35:00,67.0,63.3,29.92,South,182,2.0,2.0,88,0.00,,,0.05,Wunderground v.1.15,2013-07-28 22:35:00,
2013-07-28 18:36:00,67.0,63.3,29.92,South,182,0.0,2.0,88,0.00,,,0.05,Wunderground v.1.15,2013-07-28 22:36:00,
2013-07-28 18:38:00,67.1,63.1,29.92,South,182,0.0,3.0,87,0.00,,,0.05,Wunderground v.1.15,2013-07-28 22:38:00,
2013-07-28 18:39:00,67.1,63.1,29.92,South,182,0.0,3.0,87,0.00,,,0.05,Wunderground v.1.15,2013-07-28 22:39:00,
2013-07-28 18:41:00,67.1,63.1,29.92,SSE,163,0.0,4.0,87,0.00,,,0.05,Wunderground v.1.15,2013-07-28 22:41:00,
2013-07-28 18:42:00,67.1,63.1,29.92,SSE,163,0.0,4.0,87,0.00,,,0.05,Wunderground v.1.15,2013-07-28 22:42:00,
2013-07-28 18:43:00,67.2,63.2,29.92,ESE,122,0.0,4.0,87,0.00,,,0.05,Wunderground v.1.15,2013-07-28 22:43:00,
2013-07-28 18:44:00,67.2,63.5,29.93,South,175,1.0,4.0,88,0.00,,,0.05,Wunderground v.1.15,2013-07-28 22:44:00,
2013-07-28 18:45:00,67.2,63.5,29.93,South,175,0.0,4.0,88,0.00,,,0.05,Wunderground v.1.15,2013-07-28 22:45:00,
2013-07-28 18:47:00,67.2,63.5,29.93,SE,145,1.0,5.0,88,0.00,,,0.05,Wunderground v.1.15,2013-07-28 22:47:00,
2013-07-28 18:48:00,67.2,63.2,29.93,SE,130,0.0,5.0,87,0.00,,,0.05,Wunderground v.1.15,2013-07-28 22:48:00,
2013-07-28 18:49:00,67.2,63.2,29.93,ENE,57,2.0,5.0,87,0.00,,,0.05,Wunderground v.1.15,2013-07-28 22:49:00,
2013-07-28 18:50:00,67.2,63.2,29.93,East,92,1.0,2.0,87,0.00,,,0.05,Wunderground v.1.15,2013-07-28 22:50:00,
2013-07-28 18:52:00,67.2,63.5,29.93,East,92,0.0,2.0,88,0.00,,,0.05,Wunderground v.1.15,2013-07-28 22:52:00,
2013-07-28 18:53:00,67.2,63.8,29.93,East,92,0.0,2.0,89,0.00,,,0.05,Wunderground v.1.15,2013-07-28 22:53:00,
2013-07-28 18:54:00,67.2,63.5,29.93,ENE,65,0.0,3.0,88,0.00,,,0.05,Wunderground v.1.15,2013-07-28 22:54:00,
2013-07-28 18:55:00,67.1,63.4,29.93,East,93,0.0,3.0,88,0.00,,,0.05,Wunderground v.1.15,2013-07-28 22:55:00,
2013-07-28 18:57:00,67.1,63.4,29.92,ESE,105,0.0,3.0,88,0.00,,,0.05,Wunderground v.1.15,2013-07-28 22:57:00,
2013-07-28 18:59:00,67.1,63.4,29.93,ESE,105,0.0,3.0,88,0.00,,,0.05,Wunderground v.1.15,2013-07-28 22:59:00,
2013-07-28 19:00:00,67.1,63.4,29.92,ENE,75,0.0,0.0,88,0.00,,,0.05,Wunderground v.1.15,2013-07-28 23:00:00,
2013-07-28 19:01:00,67.0,63.3,29.93,ENE,75,0.0,1.0,88,0.00,,,0.05,Wunderground v.1.15,2013-07-28 23:01:00,
2013-07-28 19:02:00,67.0,63.6,29.93,ENE,75,0.0,1.0,89,0.00,,,0.05,Wunderground v.1.15,2013-07-28 23:02:00,
2013-07-28 19:03:00,67.0,63.3,29.93,East,95,0.0,1.0,88,0.00,,,0.05,Wunderground v.1.15,2013-07-28 23:03:00,
2013-07-28 19:04:00,67.0,63.6,29.93,NE,44,0.0,1.0,89,0.00,,,0.05,Wunderground v.1.15,2013-07-28 23:04:00,
2013-07-28 19:05:00,67.0,63.3,29.93,NE,40,0.0,1.0,88,0.00,,,0.05,Wunderground v.1.15,2013-07-28 23:05:00,
2013-07-28 19:06:00,67.0,63.3,29.93,NE,40,0.0,1.0,88,0.00,,,0.05,Wunderground v.1.15,2013-07-28 23:06:00,
2013-07-28 19:07:00,67.0,63.3,29.93,SW,216,0.0,1.0,88,0.00,,,0.05,Wunderground v.1.15,2013-07-28 23:07:00,
2013-07-28 19:08:00,67.0,63.3,29.93,SW,216,0.0,1.0,88,0.00,,,0.05,Wunderground v.1.15,2013-07-28 23:08:00,
2013-07-28 19:09:00,67.0,63.3,29.93,SW,216,0.0,1.0,88,0.00,,,0.05,Wunderground v.1.15,2013-07-28 23:09:00,
2013-07-28 19:10:00,66.9,63.6,29.94,SW,216,0.0,0.0,89,0.00,,,0.05,Wunderground v.1.15,2013-07-28 23:10:00,
2013-07-28 19:11:00,67.0,63.6,29.94,SW,216,1.0,1.0,89,0.00,,,0.05,Wunderground v.1.15,2013-07-28 23:11:00,
2013-07-28 19:12:00,67.0,63.6,29.94,ENE,62,0.0,3.0,89,0.00,,,0.05,Wunderground v.1.15,2013-07-28 23:12:00,
2013-07-28 19:14:00,66.9,63.6,29.94,SSE,161,0.0,3.0,89,0.00,,,0.05,Wunderground v.1.15,2013-07-28 23:14:00,
2013-07-28 19:16:00,66.9,63.6,29.94,SSE,161,0.0,3.0,89,0.00,,,0.05,Wunderground v.1.15,2013-07-28 23:16:00,
2013-07-28 19:17:00,66.9,63.6,29.94,ESE,102,0.0,3.0,89,0.00,,,0.05,Wunderground v.1.15,2013-07-28 23:17:00,
2013-07-28 19:19:00,66.9,63.9,29.93,ESE,102,0.0,3.0,90,0.00,,,0.05,Wunderground v.1.15,2013-07-28 23:19:00,
2013-07-28 19:20:00,66.9,63.6,29.94,ESE,102,0.0,3.0,89,0.00,,,0.05,Wunderground v.1.15,2013-07-28 23:20:00,
2013-07-28 19:21:00,66.9,63.6,29.94,ESE,109,0.0,0.0,89,0.00,,,0.05,Wunderground v.1.15,2013-07-28 23:21:00,
2013-07-28 19:22:00,66.9,63.6,29.93,South,172,0.0,1.0,89,0.00,,,0.05,Wunderground v.1.15,2013-07-28 23:22:00,
2013-07-28 19:24:00,66.9,63.2,29.94,East,85,0.0,1.0,88,0.00,,,0.05,Wunderground v.1.15,2013-07-28 23:24:00,
2013-07-28 19:26:00,67.0,63.3,29.94,ESE,103,0.0,1.0,88,0.00,,,0.05,Wunderground v.1.15,2013-07-28 23:26:00,
2013-07-28 19:27:00,67.0,63.3,29.94,NNW,346,0.0,1.0,88,0.00,,,0.05,Wunderground v.1.15,2013-07-28 23:27:00,
2013-07-28 19:28:00,67.0,63.6,29.94,SW,227,0.0,1.0,89,0.00,,,0.05,Wunderground v.1.15,2013-07-28 23:28:00,
2013-07-28 19:30:00,67.0,63.3,29.94,South,182,0.0,0.0,88,0.00,,,0.05,Wunderground v.1.15,2013-07-28 23:30:00,
2013-07-28 19:32:00,67.0,63.3,29.94,SSW,198,1.0,1.0,88,0.00,,,0.05,Wunderground v.1.15,2013-07-28 23:32:00,
2013-07-28 19:33:00,67.1,63.4,29.94,SW,234,0.0,1.0,88,0.00,,,0.05,Wunderground v.1.15,2013-07-28 23:33:00,
2013-07-28 19:35:00,67.1,63.4,29.94,South,188,0.0,4.0,88,0.00,,,0.05,Wunderground v.1.15,2013-07-28 23:35:00,
2013-07-28 19:37:00,67.1,63.4,29.94,East,96,0.0,4.0,88,0.00,,,0.05,Wunderground v.1.15,2013-07-28 23:37:00,
2013-07-28 19:38:00,67.1,63.4,29.94,WNW,295,0.0,4.0,88,0.00,,,0.05,Wunderground v.1.15,2013-07-28 23:38:00,
2013-07-28 19:42:00,67.1,63.7,29.94,NE,38,0.0,4.0,89,0.00,,,0.05,Wunderground v.1.15,2013-07-28 23:42:00,
2013-07-28 19:43:00,67.1,63.4,29.94,SW,222,0.0,5.0,88,0.00,,,0.05,Wunderground v.1.15,2013-07-28 23:43:00,
2013-07-28 19:47:00,67.1,63.7,29.94,SSW,213,2.0,5.0,89,0.00,,,0.05,Wunderground v.1.15,2013-07-28 23:47:00,
2013-07-28 19:48:00,67.1,63.4,29.94,SSW,200,3.0,5.0,88,0.00,,,0.05,Wunderground v.1.15,2013-07-28 23:48:00,
2013-07-28 19:52:00,67.1,63.4,29.94,ENE,70,0.0,5.0,88,0.00,,,0.05,Wunderground v.1.15,2013-07-28 23:52:00,
2013-07-28 19:53:00,67.0,63.3,29.94,ESE,115,0.0,5.0,88,0.00,,,0.05,Wunderground v.1.15,2013-07-28 23:53:00,
2013-07-28 19:57:00,67.0,63.0,29.94,East,80,0.0,7.0,87,0.00,,,0.05,Wunderground v.1.15,2013-07-28 23:57:00,
2013-07-28 19:58:00,66.9,62.9,29.94,South,177,2.0,7.0,87,0.00,,,0.05,Wunderground v.1.15,2013-07-28 23:58:00,
2013-07-28 19:59:00,66.9,62.9,29.94,South,172,0.0,7.0,87,0.00,,,0.05,Wunderground v.1.15,2013-07-28 23:59:00,
2013-07-28 20:02:00,66.8,63.1,29.94,NNW,332,1.0,1.0,88,0.00,,,0.05,Wunderground v.1.15,2013-07-29 00:02:00,
2013-07-28 20:03:00,66.8,63.1,29.94,NNE,22,4.0,6.0,88,0.00,,,0.05,Wunderground v.1.15,2013-07-29 00:03:00,
2013-07-28 20:04:00,66.7,63.0,29.94,SSW,193,0.0,7.0,88,0.00,,,0.05,Wunderground v.1.15,2013-07-29 00:04:00,
2013-07-28 20:08:00,66.6,62.9,29.94,NE,50,0.0,7.0,88,0.00,,,0.05,Wunderground v.1.15,2013-07-29 00:08:00,
2013-07-28 20:09:00,66.5,63.2,29.94,ENE,65,0.0,7.0,89,0.00,,,0.05,Wunderground v.1.15,2013-07-29 00:09:00,
2013-07-28 20:13:00,66.4,63.4,29.94,South,186,1.0,4.0,90,0.00,,,0.06,Wunderground v.1.15,2013-07-29 00:13:00,
2013-07-28 20:14:00,66.4,63.4,29.94,SSE,157,4.0,6.0,90,0.00,,,0.06,Wunderground v.1.15,2013-07-29 00:14:00,
2013-07-28 20:15:00,66.3,63.3,29.94,NNE,33,3.0,6.0,90,0.00,,,0.06,Wunderground v.1.15,2013-07-29 00:15:00,
2013-07-28 20:18:00,66.2,63.5,29.94,East,87,0.0,6.0,91,0.00,,,0.06,Wunderground v.1.15,2013-07-29 00:18:00,
2013-07-28 20:19:00,66.2,63.5,29.94,SSE,159,0.0,6.0,91,0.00,,,0.06,Wunderground v.1.15,2013-07-29 00:19:00,
2013-07-28 20:20:00,66.1,63.4,29.94,SE,126,0.0,1.0,91,0.00,,,0.06,Wunderground v.1.15,2013-07-29 00:20:00,
2013-07-28 20:23:00,66.0,63.6,29.94,South,173,0.0,7.0,92,0.00,,,0.06,Wunderground v.1.15,2013-07-29 00:23:00,
2013-07-28 20:24:00,66.0,63.6,29.94,SSE,156,0.0,7.0,92,0.00,,,0.06,Wunderground v.1.15,2013-07-29 00:24:00,
2013-07-28 20:25:00,65.9,63.5,29.94,NE,39,0.0,7.0,92,0.00,,,0.06,Wunderground v.1.15,2013-07-29 00:25:00,
2013-07-28 20:28:00,65.8,63.4,29.94,East,90,0.0,7.0,92,0.00,,,0.06,Wunderground v.1.15,2013-07-29 00:28:00,
2013-07-28 20:29:00,65.9,63.8,29.94,ESE,112,0.0,7.0,93,0.00,,,0.06,Wunderground v.1.15,2013-07-29 00:29:00,
2013-07-28 20:30:00,65.8,63.7,29.94,ESE,112,0.0,1.0,93,0.00,,,0.06,Wunderground v.1.15,2013-07-29 00:30:00,
2013-07-28 20:33:00,65.7,63.6,29.94,West,261,0.0,4.0,93,0.00,,,0.07,Wunderground v.1.15,2013-07-29 00:33:00,
2013-07-28 20:34:00,65.7,63.6,29.93,ENE,63,1.0,4.0,93,0.00,,,0.07,Wunderground v.1.15,2013-07-29 00:34:00,
2013-07-28 20:35:00,65.7,63.6,29.93,SW,221,2.0,4.0,93,0.00,,,0.07,Wunderground v.1.15,2013-07-29 00:35:00,
2013-07-28 20:36:00,65.7,63.6,29.93,SSW,199,2.0,4.0,93,0.00,,,0.07,Wunderground v.1.15,2013-07-29 00:36:00,
2013-07-28 20:38:00,65.7,63.6,29.93,SW,223,0.0,4.0,93,0.00,,,0.07,Wunderground v.1.15,2013-07-29 00:38:00,
2013-07-28 20:40:00,65.6,63.8,29.93,SW,223,0.0,1.0,94,0.00,,,0.07,Wunderground v.1.15,2013-07-29 00:40:00,
2013-07-28 20:41:00,65.6,63.8,29.93,SE,143,0.0,1.0,94,0.00,,,0.07,Wunderground v.1.15,2013-07-29 00:41:00,
2013-07-28 20:44:00,65.6,63.8,29.93,SSE,159,1.0,4.0,94,0.00,,,0.07,Wunderground v.1.15,2013-07-29 00:44:00,
2013-07-28 20:45:00,65.6,63.8,29.93,ESE,117,5.0,5.0,94,0.00,,,0.07,Wunderground v.1.15,2013-07-29 00:45:00,
2013-07-28 20:46:00,65.6,63.8,29.93,East,92,0.0,5.0,94,0.00,,,0.07,Wunderground v.1.15,2013-07-29 00:46:00,
2013-07-28 20:49:00,65.6,63.8,29.93,East,101,0.0,5.0,94,0.00,,,0.07,Wunderground v.1.15,2013-07-29 00:49:00,
2013-07-28 20:50:00,65.6,63.8,29.93,SE,130,0.0,2.0,94,0.00,,,0.07,Wunderground v.1.15,2013-07-29 00:50:00,
2013-07-28 20:51:00,65.6,63.8,29.93,SSE,158,0.0,2.0,94,0.00,,,0.07,Wunderground v.1.15,2013-07-29 00:51:00,
2013-07-28 20:52:00,65.6,63.8,29.93,SSE,158,0.0,2.0,94,0.00,,,0.07,Wunderground v.1.15,2013-07-29 00:52:00,
2013-07-28 20:54:00,65.6,63.8,29.93,ESE,122,0.0,2.0,94,0.00,,,0.07,Wunderground v.1.15,2013-07-29 00:54:00,
2013-07-28 20:55:00,65.6,63.8,29.93,East,92,0.0,4.0,94,0.00,,,0.07,Wunderground v.1.15,2013-07-29 00:55:00,
2013-07-28 20:57:00,65.6,63.8,29.93,East,96,0.0,4.0,94,0.00,,,0.07,Wunderground v.1.15,2013-07-29 00:57:00,
2013-07-28 21:00:00,65.5,64.0,29.93,SW,215,0.0,1.0,95,0.00,,,0.07,Wunderground v.1.15,2013-07-29 01:00:00,
2013-07-28 21:01:00,65.5,64.0,29.93,SW,215,0.0,1.0,95,0.00,,,0.07,Wunderground v.1.15,2013-07-29 01:01:00,
2013-07-28 21:02:00,65.5,64.0,29.93,NE,35,3.0,3.0,95,0.00,,,0.07,Wunderground v.1.15,2013-07-29 01:02:00,
2013-07-28 21:05:00,65.4,63.9,29.92,SE,129,0.0,4.0,95,0.00,,,0.07,Wunderground v.1.15,2013-07-29 01:05:00,
2013-07-28 21:06:00,65.4,63.9,29.93,SSE,154,0.0,4.0,95,0.00,,,0.07,Wunderground v.1.15,2013-07-29 01:06:00,
2013-07-28 21:07:00,65.4,63.9,29.92,East,90,0.0,4.0,95,0.00,,,0.07,Wunderground v.1.15,2013-07-29 01:07:00,
2013-07-28 21:08:00,65.4,63.9,29.92,East,80,0.0,4.0,95,0.00,,,0.08,Wunderground v.1.15,2013-07-29 01:08:00,
2013-07-28 21:11:00,65.3,63.8,29.92,East,84,1.0,2.0,95,0.00,,,0.08,Wunderground v.1.15,2013-07-29 01:11:00,
2013-07-28 21:12:00,65.3,63.8,29.93,East,97,1.0,2.0,95,0.00,,,0.08,Wunderground v.1.15,2013-07-29 01:12:00,
2013-07-28 21:13:00,65.3,63.8,29.93,ESE,107,0.0,2.0,95,0.00,,,0.08,Wunderground v.1.15,2013-07-29 01:13:00,
2013-07-28 21:16:00,65.2,63.7,29.93,NE,44,4.0,4.0,95,0.00,,,0.08,Wunderground v.1.15,2013-07-29 01:16:00,
2013-07-28 21:17:00,65.2,63.7,29.93,East,101,5.0,5.0,95,0.00,,,0.08,Wunderground v.1.15,2013-07-29 01:17:00,
2013-07-28 21:18:00,65.2,63.7,29.93,East,101,2.0,5.0,95,0.00,,,0.08,Wunderground v.1.15,2013-07-29 01:18:00,
2013-07-28 21:19:00,65.2,63.7,29.93,East,100,0.0,5.0,95,0.00,,,0.08,Wunderground v.1.15,2013-07-29 01:19:00,
2013-07-28 21:22:00,65.2,63.7,29.93,ESE,120,0.0,1.0,95,0.00,,,0.08,Wunderground v.1.15,2013-07-29 01:22:00,
2013-07-28 21:23:00,65.1,63.6,29.93,South,191,0.0,5.0,95,0.00,,,0.08,Wunderground v.1.15,2013-07-29 01:23:00,
2013-07-28 21:25:00,65.1,63.6,29.93,NE,46,1.0,5.0,95,0.00,,,0.08,Wunderground v.1.15,2013-07-29 01:25:00,
2013-07-28 21:27:00,65.2,63.7,29.93,NNE,30,1.0,7.0,95,0.00,,,0.08,Wunderground v.1.15,2013-07-29 01:27:00,
2013-07-28 21:28:00,65.2,63.7,29.93,NE,55,0.0,7.0,95,0.00,,,0.08,Wunderground v.1.15,2013-07-29 01:28:00,
2013-07-28 21:30:00,65.2,63.7,29.93,East,90,0.0,1.0,95,0.00,,,0.08,Wunderground v.1.15,2013-07-29 01:30:00,
2013-07-28 21:32:00,65.2,63.7,29.93,NE,53,0.0,1.0,95,0.00,,,0.08,Wunderground v.1.15,2013-07-29 01:32:00,
2013-07-28 21:33:00,65.2,63.7,29.93,ENE,74,4.0,4.0,95,0.00,,,0.08,Wunderground v.1.15,2013-07-29 01:33:00,
2013-07-28 21:34:00,65.2,63.7,29.93,ENE,69,0.0,4.0,95,0.00,,,0.08,Wunderground v.1.15,2013-07-29 01:34:00,
2013-07-28 21:36:00,65.1,63.6,29.93,ESE,113,0.0,7.0,95,0.00,,,0.08,Wunderground v.1.15,2013-07-29 01:36:00,
2013-07-28 21:37:00,65.2,63.7,29.93,East,99,0.0,7.0,95,0.00,,,0.08,Wunderground v.1.15,2013-07-29 01:37:00,
2013-07-28 21:38:00,65.1,63.9,29.94,East,96,0.0,7.0,96,0.00,,,0.08,Wunderground v.1.15,2013-07-29 01:38:00,
2013-07-28 21:39:00,65.2,64.0,29.94,East,96,0.0,7.0,96,0.00,,,0.08,Wunderground v.1.15,2013-07-29 01:39:00,
2013-07-28 21:42:00,65.2,64.0,29.94,South,175,0.0,0.0,96,0.00,,,0.08,Wunderground v.1.15,2013-07-29 01:42:00,
2013-07-28 21:43:00,65.1,63.9,29.94,South,175,0.0,0.0,96,0.00,,,0.08,Wunderground v.1.15,2013-07-29 01:43:00,
2013-07-28 21:44:00,65.2,64.0,29.94,South,175,0.0,0.0,96,0.00,,,0.08,Wunderground v.1.15,2013-07-29 01:44:00,
2013-07-28 21:48:00,65.2,64.0,29.94,SSE,153,0.0,1.0,96,0.00,,,0.08,Wunderground v.1.15,2013-07-29 01:48:00,
2013-07-28 21:50:00,65.2,64.0,29.94,South,180,0.0,1.0,96,0.00,,,0.08,Wunderground v.1.15,2013-07-29 01:50:00,
2013-07-28 21:54:00,65.2,64.0,29.95,ENE,77,0.0,2.0,96,0.00,,,0.08,Wunderground v.1.15,2013-07-29 01:54:00,
2013-07-28 21:56:00,65.3,64.1,29.95,SE,140,0.0,2.0,96,0.00,,,0.08,Wunderground v.1.15,2013-07-29 01:56:00,
2013-07-28 21:57:00,65.3,64.1,29.94,SE,140,0.0,2.0,96,0.00,,,0.08,Wunderground v.1.15,2013-07-29 01:57:00,
2013-07-28 22:00:00,65.3,64.1,29.94,ESE,121,0.0,1.0,96,0.00,,,0.08,Wunderground v.1.15,2013-07-29 02:00:00,
2013-07-28 22:02:00,65.3,64.1,29.95,ENE,58,3.0,5.0,96,0.00,,,0.08,Wunderground v.1.15,2013-07-29 02:02:00,
2013-07-28 22:06:00,65.3,64.1,29.95,SE,142,0.0,5.0,96,0.00,,,0.08,Wunderground v.1.15,2013-07-29 02:06:00,
2013-07-28 22:07:00,65.3,64.1,29.95,SE,142,0.0,5.0,96,0.00,,,0.08,Wunderground v.1.15,2013-07-29 02:07:00,
2013-07-28 22:08:00,65.3,64.1,29.95,SE,142,0.0,5.0,96,0.00,,,0.08,Wunderground v.1.15,2013-07-29 02:08:00,
2013-07-28 22:12:00,65.3,63.8,29.95,ESE,110,1.0,1.0,95,0.00,,,0.08,Wunderground v.1.15,2013-07-29 02:12:00,
2013-07-28 22:13:00,65.3,63.8,29.95,East,98,1.0,2.0,95,0.00,,,0.08,Wunderground v.1.15,2013-07-29 02:13:00,
2013-07-28 22:18:00,65.4,63.9,29.95,South,188,0.0,3.0,95,0.00,,,0.08,Wunderground v.1.15,2013-07-29 02:18:00,
2013-07-28 22:19:00,65.5,64.0,29.95,South,188,0.0,3.0,95,0.00,,,0.08,Wunderground v.1.15,2013-07-29 02:19:00,
2013-07-28 22:20:00,65.5,64.0,29.95,South,188,0.0,1.0,95,0.00,,,0.08,Wunderground v.1.15,2013-07-29 02:20:00,
2013-07-28 22:21:00,65.4,63.9,29.94,South,188,0.0,1.0,95,0.00,,,0.08,Wunderground v.1.15,2013-07-29 02:21:00,
2013-07-28 22:24:00,65.4,63.9,29.95,South,188,0.0,1.0,95,0.00,,,0.08,Wunderground v.1.15,2013-07-29 02:24:00,
2013-07-28 22:26:00,65.4,63.9,29.95,South,188,0.0,1.0,95,0.00,,,0.08,Wunderground v.1.15,2013-07-29 02:26:00,
2013-07-28 22:27:00,65.4,63.6,29.95,South,182,0.0,4.0,94,0.00,,,0.08,Wunderground v.1.15,2013-07-29 02:27:00,
2013-07-28 22:29:00,65.3,63.5,29.94,SE,143,0.0,4.0,94,0.00,,,0.08,Wunderground v.1.15,2013-07-29 02:29:00,
2013-07-28 22:32:00,65.2,63.4,29.94,NE,51,0.0,5.0,94,0.00,,,0.08,Wunderground v.1.15,2013-07-29 02:32:00,
2013-07-28 22:35:00,65.2,63.4,29.94,SE,143,0.0,5.0,94,0.00,,,0.08,Wunderground v.1.15,2013-07-29 02:35:00,
2013-07-28 22:37:00,65.1,63.3,29.94,SE,126,0.0,5.0,94,0.00,,,0.08,Wunderground v.1.15,2013-07-29 02:37:00,
2013-07-28 22:40:00,65.1,63.3,29.94,ENE,69,1.0,5.0,94,0.00,,,0.08,Wunderground v.1.15,2013-07-29 02:40:00,
2013-07-28 22:42:00,65.1,63.3,29.94,South,191,0.0,1.0,94,0.00,,,0.08,Wunderground v.1.15,2013-07-29 02:42:00,
2013-07-28 22:43:00,65.1,63.3,29.94,South,187,3.0,3.0,94,0.00,,,0.08,Wunderground v.1.15,2013-07-29 02:43:00,
2013-07-28 22:45:00,65.1,63.3,29.94,NNE,26,0.0,3.0,94,0.00,,,0.08,Wunderground v.1.15,2013-07-29 02:45:00,
2013-07-28 22:48:00,65.2,63.4,29.94,ESE,121,2.0,4.0,94,0.00,,,0.08,Wunderground v.1.15,2013-07-29 02:48:00,
2013-07-28 22:50:00,65.2,63.4,29.94,West,271,0.0,1.0,94,0.00,,,0.08,Wunderground v.1.15,2013-07-29 02:50:00,
2013-07-28 22:54:00,65.2,63.7,29.94,South,171,0.0,4.0,95,0.00,,,0.08,Wunderground v.1.15,2013-07-29 02:54:00,
2013-07-28 22:55:00,65.2,63.7,29.94,South,171,0.0,4.0,95,0.00,,,0.08,Wunderground v.1.15,2013-07-29 02:55:00,
2013-07-28 22:56:00,65.1,63.6,29.94,ESE,107,0.0,4.0,95,0.00,,,0.08,Wunderground v.1.15,2013-07-29 02:56:00,
2013-07-28 23:00:00,65.0,63.5,29.94,ESE,104,0.0,4.0,95,0.00,,,0.08,Wunderground v.1.15,2013-07-29 03:00:00,
2013-07-28 23:01:00,65.0,63.5,29.94,SE,134,0.0,5.0,95,0.00,,,0.09,Wunderground v.1.15,2013-07-29 03:01:00,
2013-07-28 23:02:00,65.0,63.5,29.94,SE,134,0.0,5.0,95,0.00,,,0.09,Wunderground v.1.15,2013-07-29 03:02:00,
2013-07-28 23:05:00,65.0,63.5,29.94,SE,134,0.0,5.0,95,0.00,,,0.09,Wunderground v.1.15,2013-07-29 03:05:00,
2013-07-28 23:06:00,65.0,63.5,29.94,SE,141,0.0,5.0,95,0.00,,,0.09,Wunderground v.1.15,2013-07-29 03:06:00,
2013-07-28 23:07:00,65.0,63.5,29.94,SSW,194,4.0,5.0,95,0.00,,,0.09,Wunderground v.1.15,2013-07-29 03:07:00,
2013-07-28 23:10:00,64.9,63.4,29.94,East,86,0.0,0.0,95,0.00,,,0.09,Wunderground v.1.15,2013-07-29 03:10:00,
2013-07-28 23:11:00,64.9,63.4,29.94,East,84,0.0,0.0,95,0.00,,,0.09,Wunderground v.1.15,2013-07-29 03:11:00,
2013-07-28 23:14:00,64.9,63.4,29.94,East,84,0.0,4.0,95,0.00,,,0.09,Wunderground v.1.15,2013-07-29 03:14:00,
2013-07-28 23:16:00,64.9,63.4,29.94,East,84,0.0,4.0,95,0.00,,,0.09,Wunderground v.1.15,2013-07-29 03:16:00,
2013-07-28 23:17:00,64.9,63.4,29.94,ENE,70,2.0,4.0,95,0.00,,,0.09,Wunderground v.1.15,2013-07-29 03:17:00,
2013-07-28 23:19:00,64.8,63.3,29.94,ESE,113,0.0,4.0,95,0.00,,,0.09,Wunderground v.1.15,2013-07-29 03:19:00,
2013-07-28 23:21:00,64.8,63.3,29.94,East,88,0.0,0.0,95,0.00,,,0.09,Wunderground v.1.15,2013-07-29 03:21:00,
2013-07-28 23:22:00,64.8,63.3,29.94,East,89,0.0,1.0,95,0.00,,,0.09,Wunderground v.1.15,2013-07-29 03:22:00,
2013-07-28 23:25:00,64.7,63.2,29.94,NE,48,2.0,4.0,95,0.00,,,0.09,Wunderground v.1.15,2013-07-29 03:25:00,
2013-07-28 23:27:00,64.7,63.2,29.95,ENE,67,0.0,4.0,95,0.00,,,0.09,Wunderground v.1.15,2013-07-29 03:27:00,
2013-07-28 23:28:00,64.7,63.2,29.94,NE,54,0.0,4.0,95,0.00,,,0.09,Wunderground v.1.15,2013-07-29 03:28:00,
2013-07-28 23:30:00,64.7,63.2,29.95,ENE,72,1.0,4.0,95,0.00,,,0.09,Wunderground v.1.15,2013-07-29 03:30:00,
2013-07-28 23:32:00,64.7,63.2,29.95,ESE,103,0.0,1.0,95,0.00,,,0.09,Wunderground v.1.15,2013-07-29 03:32:00,
2013-07-28 23:33:00,64.7,63.5,29.95,ESE,103,0.0,1.0,96,0.00,,,0.09,Wunderground v.1.15,2013-07-29 03:33:00,
2013-07-28 23:37:00,64.7,63.5,29.95,South,173,0.0,4.0,96,0.00,,,0.09,Wunderground v.1.15,2013-07-29 03:37:00,
2013-07-28 23:38:00,64.7,63.5,29.95,South,183,0.0,4.0,96,0.00,,,0.09,Wunderground v.1.15,2013-07-29 03:38:00,
2013-07-28 23:40:00,64.7,63.5,29.95,South,170,0.0,4.0,96,0.00,,,0.09,Wunderground v.1.15,2013-07-29 03:40:00,
2013-07-28 23:42:00,64.7,63.5,29.95,ENE,76,3.0,3.0,96,0.00,,,0.09,Wunderground v.1.15,2013-07-29 03:42:00,
2013-07-28 23:43:00,64.8,63.6,29.95,ENE,78,0.0,3.0,96,0.00,,,0.09,Wunderground v.1.15,2013-07-29 03:43:00,
2013-07-28 23:47:00,64.9,63.7,29.95,ESE,103,0.0,5.0,96,0.00,,,0.09,Wunderground v.1.15,2013-07-29 03:47:00,
2013-07-28 23:48:00,64.9,63.7,29.95,ESE,103,0.0,5.0,96,0.00,,,0.09,Wunderground v.1.15,2013-07-29 03:48:00,
2013-07-28 23:49:00,64.9,63.7,29.95,SSE,147,6.0,7.0,96,0.00,,,0.09,Wunderground v.1.15,2013-07-29 03:49:00,
2013-07-28 23:52:00,64.9,63.7,29.95,SSE,161,0.0,3.0,96,0.00,,,0.09,Wunderground v.1.15,2013-07-29 03:52:00,
2013-07-28 23:55:00,65.0,63.8,29.95,East,87,0.0,3.0,96,0.00,,,0.09,Wunderground v.1.15,2013-07-29 03:55:00,
2013-07-28 23:58:00,64.9,63.7,29.95,East,89,1.0,3.0,96,0.00,,,0.09,Wunderground v.1.15,2013-07-29 03:58:00,